Time,TemperatureF,DewpointF,PressureIn,WindDirection,WindDirectionDegrees,WindSpeedMPH,WindSpeedGustMPH,Humidity,HourlyPrecipIn,Conditions,Clouds,dailyrainin,SoftwareType,DateUTC
2013-02-02 00:00:00,52.2,37.8,29.68,NNW,338,4.6,4.6,58,0.00,CLR,,0.00,WeatherDisplay:10.37,2013-02-01 22:00:00,
2013-02-02 00:02:00,52.3,38.0,29.68,North,0,3.5,3.5,58,0.00,CLR,,0.00,WeatherDisplay:10.37,2013-02-01 22:02:00,
2013-02-02 00:04:00,52.3,38.0,29.68,North,0,3.8,3.8,58,0.00,CLR,,0.00,WeatherDisplay:10.37,2013-02-01 22:04:00,
2013-02-02 00:05:00,52.5,38.2,29.68,NNW,338,6.4,6.4,58,0.00,CLR,,0.00,WeatherDisplay:10.37,2013-02-01 22:05:00,
2013-02-02 00:06:00,52.5,37.7,29.68,NNW,338,6.9,6.9,57,0.00,CLR,,0.00,WeatherDisplay:10.37,2013-02-01 22:06:00,
2013-02-02 00:07:00,52.7,37.9,29.68,NNE,22,4.6,4.6,57,0.00,CLR,,0.00,WeatherDisplay:10.37,2013-02-01 22:07:00,
2013-02-02 00:09:00,52.7,38.3,29.68,NNW,338,3.5,3.5,58,0.00,CLR,,0.00,WeatherDisplay:10.37,2013-02-01 22:09:00,
2013-02-02 00:10:00,52.5,37.7,29.68,NNW,338,2.3,2.3,57,0.00,CLR,,0.00,WeatherDisplay:10.37,2013-02-01 22:10:00,
2013-02-02 00:11:00,52.5,37.7,29.68,NNE,22,3.6,3.6,57,0.00,CLR,,0.00,WeatherDisplay:10.37,2013-02-01 22:11:00,
2013-02-02 00:12:00,52.5,37.7,29.68,NNW,338,3.5,3.6,57,0.00,CLR,,0.00,WeatherDisplay:10.37,2013-02-01 22:12:00,
2013-02-02 00:14:00,52.7,38.3,29.68,NNW,338,4.6,4.6,58,0.00,CLR,,0.00,WeatherDisplay:10.37,2013-02-01 22:14:00,
2013-02-02 00:15:00,52.7,38.3,29.68,NNW,338,4.6,4.6,58,0.00,CLR,,0.00,WeatherDisplay:10.37,2013-02-01 22:15:00,
2013-02-02 00:16:00,52.7,38.3,29.65,NNW,338,4.6,4.6,58,0.00,CLR,,0.00,WeatherDisplay:10.37,2013-02-01 22:16:00,
2013-02-02 00:18:00,52.7,38.3,29.65,NNW,338,3.5,3.5,58,0.00,CLR,,0.00,WeatherDisplay:10.37,2013-02-01 22:18:00,
2013-02-02 00:19:00,52.7,38.3,29.65,NNW,338,5.4,5.4,58,0.00,CLR,,0.00,WeatherDisplay:10.37,2013-02-01 22:19:00,
2013-02-02 00:20:00,52.7,38.3,29.65,NNE,22,5.8,5.8,58,0.00,CLR,,0.00,WeatherDisplay:10.37,2013-02-01 22:20:00,
2013-02-02 00:21:00,52.7,38.3,29.65,NNE,22,4.6,4.6,58,0.00,CLR,,0.00,WeatherDisplay:10.37,2013-02-01 22:21:00,
2013-02-02 00:23:00,52.9,38.5,29.65,NNW,338,5.6,5.6,58,0.00,CLR,,0.00,WeatherDisplay:10.37,2013-02-01 22:23:00,
2013-02-02 00:24:00,53.1,39.1,29.65,NNE,22,5.8,5.8,59,0.00,CLR,,0.00,WeatherDisplay:10.37,2013-02-01 22:24:00,
2013-02-02 00:26:00,53.1,39.1,29.65,North,0,3.5,3.8,59,0.00,CLR,,0.00,WeatherDisplay:10.37,2013-02-01 22:26:00,
2013-02-02 00:28:00,53.1,39.1,29.65,NNW,338,3.5,3.5,59,0.00,CLR,,0.00,WeatherDisplay:10.37,2013-02-01 22:28:00,
2013-02-02 00:29:00,52.9,38.9,29.65,NNW,338,3.8,3.8,59,0.00,CLR,,0.00,WeatherDisplay:10.37,2013-02-01 22:29:00,
2013-02-02 00:31:00,53.1,39.1,29.65,NNW,338,4.6,4.6,59,0.00,CLR,,0.00,WeatherDisplay:10.37,2013-02-01 22:31:00,
2013-02-02 00:33:00,53.1,39.1,29.65,NNE,22,4.6,4.6,59,0.00,CLR,,0.00,WeatherDisplay:10.37,2013-02-01 22:33:00,
2013-02-02 00:34:00,53.1,39.5,29.65,NNW,338,5.8,5.8,60,0.00,CLR,,0.00,WeatherDisplay:10.37,2013-02-01 22:34:00,
2013-02-02 00:36:00,53.1,39.5,29.65,NNW,338,4.6,4.6,60,0.00,CLR,,0.00,WeatherDisplay:10.37,2013-02-01 22:36:00,
2013-02-02 00:38:00,53.1,39.5,29.65,NNW,338,4.6,4.6,60,0.00,CLR,,0.00,WeatherDisplay:10.37,2013-02-01 22:38:00,
2013-02-02 00:40:00,53.1,39.5,29.65,North,349,2.0,5.0,60,0.00,CLR,,0.00,WeatherDisplay:10.37,2013-02-01 22:40:00,
2013-02-02 00:41:00,53.1,39.5,29.65,NNW,338,4.6,4.6,60,0.00,CLR,,0.00,WeatherDisplay:10.37,2013-02-01 22:41:00,
2013-02-02 00:43:00,53.1,39.5,29.65,NW,315,3.5,3.5,60,0.00,CLR,,0.00,WeatherDisplay:10.37,2013-02-01 22:43:00,
2013-02-02 00:45:00,52.9,39.4,29.65,NNW,338,4.6,4.6,60,0.00,CLR,,0.00,WeatherDisplay:10.37,2013-02-01 22:45:00,
2013-02-02 00:46:00,52.9,39.4,29.65,NNE,22,4.6,4.6,60,0.00,CLR,,0.00,WeatherDisplay:10.37,2013-02-01 22:46:00,
2013-02-02 00:48:00,52.9,39.4,29.65,NNW,338,5.8,5.8,60,0.00,CLR,,0.00,WeatherDisplay:10.37,2013-02-01 22:48:00,
2013-02-02 00:50:00,52.9,39.4,29.65,NNW,338,2.9,2.9,60,0.00,CLR,,0.00,WeatherDisplay:10.37,2013-02-01 22:50:00,
2013-02-02 00:51:00,52.7,39.2,29.65,NNW,338,2.4,2.4,60,0.00,CLR,,0.00,WeatherDisplay:10.37,2013-02-01 22:51:00,
2013-02-02 00:53:00,52.7,39.2,29.65,NNW,338,2.3,2.3,60,0.00,CLR,,0.00,WeatherDisplay:10.37,2013-02-01 22:53:00,
2013-02-02 00:55:00,52.7,39.2,29.65,NNW,338,2.9,2.9,60,0.00,CLR,,0.00,WeatherDisplay:10.37,2013-02-01 22:55:00,
2013-02-02 00:56:00,52.7,39.2,29.65,NNW,338,5.8,5.8,60,0.00,CLR,,0.00,WeatherDisplay:10.37,2013-02-01 22:56:00,
2013-02-02 00:58:00,52.5,39.0,29.65,NNW,338,2.3,2.3,60,0.00,CLR,,0.00,WeatherDisplay:10.37,2013-02-01 22:58:00,
2013-02-02 01:00:00,52.5,39.0,29.65,NNW,338,2.4,2.4,60,0.00,CLR,,0.00,WeatherDisplay:10.37,2013-02-01 23:00:00,
2013-02-02 01:01:00,52.5,39.5,29.62,NW,315,4.6,4.6,61,0.00,CLR,,0.00,WeatherDisplay:10.37,2013-02-01 23:01:00,
2013-02-02 01:02:00,52.5,39.5,29.62,NW,315,4.6,4.6,61,0.00,CLR,,0.00,WeatherDisplay:10.37,2013-02-01 23:02:00,
2013-02-02 01:03:00,52.5,39.5,29.62,WNW,292,3.5,3.5,61,0.00,CLR,,0.00,WeatherDisplay:10.37,2013-02-01 23:03:00,
2013-02-02 01:06:00,52.3,39.3,29.62,WNW,292,2.3,2.4,61,0.00,CLR,,0.00,WeatherDisplay:10.37,2013-02-01 23:06:00,
2013-02-02 01:07:00,52.5,39.5,29.62,WNW,292,3.5,3.5,61,0.00,CLR,,0.00,WeatherDisplay:10.37,2013-02-01 23:07:00,
2013-02-02 01:08:00,52.3,39.3,29.62,WNW,292,3.5,3.5,61,0.00,CLR,,0.00,WeatherDisplay:10.37,2013-02-01 23:08:00,
2013-02-02 01:11:00,52.3,39.3,29.62,North,0,3.5,3.5,61,0.00,CLR,,0.00,WeatherDisplay:10.37,2013-02-01 23:11:00,
2013-02-02 01:12:00,52.3,39.3,29.62,NNE,22,2.4,2.4,61,0.00,CLR,,0.00,WeatherDisplay:10.37,2013-02-01 23:12:00,
2013-02-02 01:13:00,52.2,39.1,29.62,NNE,22,2.3,2.3,61,0.00,CLR,,0.00,WeatherDisplay:10.37,2013-02-01 23:13:00,
2013-02-02 01:16:00,52.2,39.1,29.62,NNE,22,3.5,3.5,61,0.00,CLR,,0.00,WeatherDisplay:10.37,2013-02-01 23:16:00,
2013-02-02 01:17:00,52.2,39.1,29.62,NE,45,2.3,2.3,61,0.00,CLR,,0.00,WeatherDisplay:10.37,2013-02-01 23:17:00,
2013-02-02 01:18:00,52.0,38.9,29.62,NE,45,2.4,2.4,61,0.00,CLR,,0.00,WeatherDisplay:10.37,2013-02-01 23:18:00,
2013-02-02 01:21:00,52.0,38.9,29.62,NNE,22,3.5,3.5,61,0.00,CLR,,0.00,WeatherDisplay:10.37,2013-02-01 23:21:00,
2013-02-02 01:22:00,52.0,38.9,29.62,NNE,22,2.3,2.3,61,0.00,CLR,,0.00,WeatherDisplay:10.37,2013-02-01 23:22:00,
2013-02-02 01:23:00,51.8,38.8,29.62,NNE,22,2.3,2.3,61,0.00,CLR,,0.00,WeatherDisplay:10.37,2013-02-01 23:23:00,
2013-02-02 01:26:00,51.6,38.6,29.62,NNE,22,2.4,0.0,61,0.00,CLR,,0.00,WeatherDisplay:10.37,2013-02-01 23:26:00,
2013-02-02 01:27:00,51.6,39.0,29.62,NNE,22,2.3,2.3,62,0.00,CLR,,0.00,WeatherDisplay:10.37,2013-02-01 23:27:00,
2013-02-02 01:28:00,51.6,38.6,29.62,NNE,22,1.1,1.1,61,0.00,CLR,,0.00,WeatherDisplay:10.37,2013-02-01 23:28:00,
2013-02-02 01:31:00,51.4,38.4,29.62,NNE,22,2.0,2.0,61,0.00,CLR,,0.00,WeatherDisplay:10.37,2013-02-01 23:31:00,
2013-02-02 01:32:00,51.4,38.8,29.62,NNE,22,2.3,2.3,62,0.00,CLR,,0.00,WeatherDisplay:10.37,2013-02-01 23:32:00,
2013-02-02 01:33:00,51.4,38.8,29.62,NNE,22,1.1,1.1,62,0.00,CLR,,0.00,WeatherDisplay:10.37,2013-02-01 23:33:00,
2013-02-02 01:34:00,51.4,38.8,29.62,NNE,22,1.1,0.0,62,0.00,CLR,,0.00,WeatherDisplay:10.37,2013-02-01 23:34:00,
2013-02-02 01:36:00,51.3,38.7,29.62,NNE,22,2.4,2.4,62,0.00,CLR,,0.00,WeatherDisplay:10.37,2013-02-01 23:36:00,
2013-02-02 01:37:00,51.3,38.7,29.62,NNE,22,2.3,2.3,62,0.00,CLR,,0.00,WeatherDisplay:10.37,2013-02-01 23:37:00,
2013-02-02 01:38:00,51.3,38.7,29.62,NNE,22,2.3,2.3,62,0.00,CLR,,0.00,WeatherDisplay:10.37,2013-02-01 23:38:00,
2013-02-02 01:39:00,51.3,38.7,29.62,NNE,22,1.1,1.4,62,0.00,CLR,,0.00,WeatherDisplay:10.37,2013-02-01 23:39:00,
2013-02-02 01:41:00,51.1,38.5,29.62,NNE,22,2.3,2.3,62,0.00,CLR,,0.00,WeatherDisplay:10.37,2013-02-01 23:41:00,
2013-02-02 01:42:00,51.1,38.5,29.62,NNE,22,1.4,1.4,62,0.00,CLR,,0.00,WeatherDisplay:10.37,2013-02-01 23:42:00,
2013-02-02 01:43:00,51.1,38.5,29.62,NNE,22,2.3,2.3,62,0.00,CLR,,0.00,WeatherDisplay:10.37,2013-02-01 23:43:00,
2013-02-02 01:44:00,50.9,38.3,29.62,NNE,22,1.1,1.1,62,0.00,CLR,,0.00,WeatherDisplay:10.37,2013-02-01 23:44:00,
2013-02-02 01:46:00,50.9,38.3,29.62,NNE,22,1.1,0.0,62,0.00,CLR,,0.00,WeatherDisplay:10.37,2013-02-01 23:46:00,
2013-02-02 01:48:00,50.7,38.2,29.62,NNE,22,0.0,0.0,62,0.00,CLR,,0.00,WeatherDisplay:10.37,2013-02-01 23:48:00,
2013-02-02 01:49:00,50.7,38.2,29.62,NNE,22,1.6,0.0,62,0.00,CLR,,0.00,WeatherDisplay:10.37,2013-02-01 23:49:00,
2013-02-02 01:52:00,50.7,38.2,29.62,NE,45,2.3,2.3,62,0.00,CLR,,0.00,WeatherDisplay:10.37,2013-02-01 23:52:00,
2013-02-02 01:53:00,50.7,38.2,29.62,NE,45,2.3,2.3,62,0.00,CLR,,0.00,WeatherDisplay:10.37,2013-02-01 23:53:00,
2013-02-02 01:54:00,50.5,38.0,29.62,NE,45,2.3,2.3,62,0.00,CLR,,0.00,WeatherDisplay:10.37,2013-02-01 23:54:00,
2013-02-02 01:57:00,50.7,38.6,29.62,NE,45,2.4,2.4,63,0.00,CLR,,0.00,WeatherDisplay:10.37,2013-02-01 23:57:00,
2013-02-02 01:58:00,50.7,38.6,29.62,NE,45,2.6,2.6,63,0.00,CLR,,0.00,WeatherDisplay:10.37,2013-02-01 23:58:00,
2013-02-02 01:59:00,50.7,39.0,29.62,NE,45,2.3,2.3,64,0.00,CLR,,0.00,WeatherDisplay:10.37,2013-02-01 23:59:00,
2013-02-02 02:02:00,50.7,39.0,29.62,NE,45,2.6,2.6,64,0.00,CLR,,0.00,WeatherDisplay:10.37,2013-02-02 00:02:00,
2013-02-02 02:03:00,50.7,39.0,29.62,NE,45,2.3,2.3,64,0.00,CLR,,0.00,WeatherDisplay:10.37,2013-02-02 00:03:00,
2013-02-02 02:04:00,50.7,39.0,29.62,NE,45,2.9,2.9,64,0.00,CLR,,0.00,WeatherDisplay:10.37,2013-02-02 00:04:00,
2013-02-02 02:05:00,50.7,39.0,29.62,NE,45,2.6,2.6,64,0.00,CLR,,0.00,WeatherDisplay:10.37,2013-02-02 00:05:00,
2013-02-02 02:07:00,50.7,39.0,29.62,NE,45,2.3,2.3,64,0.00,CLR,,0.00,WeatherDisplay:10.37,2013-02-02 00:07:00,
2013-02-02 02:08:00,50.7,39.0,29.62,NE,45,2.3,2.3,64,0.00,CLR,,0.00,WeatherDisplay:10.37,2013-02-02 00:08:00,
2013-02-02 02:09:00,50.7,39.0,29.62,NE,45,2.3,2.3,64,0.00,CLR,,0.00,WeatherDisplay:10.37,2013-02-02 00:09:00,
2013-02-02 02:10:00,50.5,38.8,29.62,NE,45,2.3,2.3,64,0.00,CLR,,0.00,WeatherDisplay:10.37,2013-02-02 00:10:00,
2013-02-02 02:13:00,50.5,38.8,29.62,NNE,22,2.3,2.3,64,0.00,CLR,,0.00,WeatherDisplay:10.37,2013-02-02 00:13:00,
2013-02-02 02:14:00,50.5,38.8,29.62,NNE,22,1.1,0.0,64,0.00,CLR,,0.00,WeatherDisplay:10.37,2013-02-02 00:14:00,
2013-02-02 02:15:00,50.5,38.8,29.62,NNE,22,1.1,0.0,64,0.00,CLR,,0.00,WeatherDisplay:10.37,2013-02-02 00:15:00,
2013-02-02 02:18:00,50.5,38.8,29.62,NNE,22,2.9,2.9,64,0.00,CLR,,0.00,WeatherDisplay:10.37,2013-02-02 00:18:00,
2013-02-02 02:19:00,50.5,38.8,29.62,NNE,22,2.3,2.6,64,0.00,CLR,,0.00,WeatherDisplay:10.37,2013-02-02 00:19:00,
2013-02-02 02:20:00,50.7,39.4,29.62,NNE,22,2.9,2.9,65,0.00,CLR,,0.00,WeatherDisplay:10.37,2013-02-02 00:20:00,
2013-02-02 02:23:00,50.9,39.9,29.62,NE,45,2.4,2.4,66,0.00,CLR,,0.00,WeatherDisplay:10.37,2013-02-02 00:23:00,
2013-02-02 02:24:00,50.9,39.9,29.62,NE,45,2.3,2.4,66,0.00,CLR,,0.00,WeatherDisplay:10.37,2013-02-02 00:24:00,
2013-02-02 02:25:00,50.9,39.9,29.62,NE,45,2.4,2.4,66,0.00,CLR,,0.00,WeatherDisplay:10.37,2013-02-02 00:25:00,
2013-02-02 02:28:00,50.7,39.8,29.62,NE,45,2.3,2.3,66,0.00,CLR,,0.00,WeatherDisplay:10.37,2013-02-02 00:28:00,
2013-02-02 02:29:00,50.7,39.8,29.62,NE,45,2.3,2.3,66,0.00,CLR,,0.00,WeatherDisplay:10.37,2013-02-02 00:29:00,
2013-02-02 02:30:00,50.7,39.8,29.62,NE,45,2.3,2.3,66,0.00,CLR,,0.00,WeatherDisplay:10.37,2013-02-02 00:30:00,
2013-02-02 02:34:00,50.5,39.2,29.59,NE,45,1.1,0.0,65,0.00,CLR,,0.00,WeatherDisplay:10.37,2013-02-02 00:34:00,
2013-02-02 02:35:00,50.5,39.2,29.59,NE,45,1.1,1.1,65,0.00,CLR,,0.00,WeatherDisplay:10.37,2013-02-02 00:35:00,
2013-02-02 02:39:00,50.5,39.6,29.59,NNE,22,0.0,0.0,66,0.00,CLR,,0.00,WeatherDisplay:10.37,2013-02-02 00:39:00,
2013-02-02 02:40:00,50.5,39.6,29.59,NNE,22,0.0,0.0,66,0.00,CLR,,0.00,WeatherDisplay:10.37,2013-02-02 00:40:00,
2013-02-02 02:44:00,50.4,39.4,29.59,NNE,22,0.0,0.0,66,0.00,CLR,,0.00,WeatherDisplay:10.37,2013-02-02 00:44:00,
2013-02-02 02:45:00,50.4,39.4,29.59,NNE,22,0.0,0.0,66,0.00,CLR,,0.00,WeatherDisplay:10.37,2013-02-02 00:45:00,
2013-02-02 02:49:00,50.4,39.4,29.59,NNE,22,1.1,0.0,66,0.00,CLR,,0.00,WeatherDisplay:10.37,2013-02-02 00:49:00,
2013-02-02 02:50:00,50.4,39.4,29.59,NNE,22,1.1,0.0,66,0.00,CLR,,0.00,WeatherDisplay:10.37,2013-02-02 00:50:00,
2013-02-02 02:54:00,50.2,39.6,29.59,NNE,22,0.0,0.0,67,0.00,CLR,,0.00,WeatherDisplay:10.37,2013-02-02 00:54:00,
2013-02-02 02:55:00,50.2,39.6,29.59,NNE,22,0.0,0.0,67,0.00,CLR,,0.00,WeatherDisplay:10.37,2013-02-02 00:55:00,
2013-02-02 02:56:00,50.2,39.6,29.59,NNE,22,0.0,0.0,67,0.00,CLR,,0.00,WeatherDisplay:10.37,2013-02-02 00:56:00,
2013-02-02 02:59:00,50.0,39.5,29.59,NNE,22,2.0,0.0,67,0.00,CLR,,0.00,WeatherDisplay:10.37,2013-02-02 00:59:00,
2013-02-02 03:00:00,50.0,39.5,29.59,NNE,22,2.3,2.3,67,0.00,CLR,,0.00,WeatherDisplay:10.37,2013-02-02 01:00:00,
2013-02-02 03:01:00,50.0,39.8,29.59,NNE,22,2.3,2.3,68,0.00,CLR,,0.00,WeatherDisplay:10.37,2013-02-02 01:01:00,
2013-02-02 03:04:00,50.4,40.6,29.62,NNE,22,2.9,2.9,69,0.00,CLR,,0.00,WeatherDisplay:10.37,2013-02-02 01:04:00,
2013-02-02 03:05:00,50.2,40.1,29.62,NNE,22,2.0,3.0,68,0.00,CLR,,0.00,WeatherDisplay:10.37,2013-02-02 01:05:00,
2013-02-02 03:06:00,50.4,40.9,29.62,NNE,22,3.5,3.5,70,0.00,CLR,,0.00,WeatherDisplay:10.37,2013-02-02 01:06:00,
2013-02-02 03:09:00,50.9,42.6,29.62,NNE,22,3.5,3.5,73,0.00,CLR,,0.00,WeatherDisplay:10.37,2013-02-02 01:09:00,
2013-02-02 03:10:00,50.9,42.6,29.62,NNE,22,3.5,3.5,73,0.00,CLR,,0.00,WeatherDisplay:10.37,2013-02-02 01:10:00,
2013-02-02 03:11:00,51.1,42.7,29.62,NNE,22,3.5,3.5,73,0.00,CLR,,0.00,WeatherDisplay:10.37,2013-02-02 01:11:00,
2013-02-02 03:14:00,51.3,42.9,29.62,North,0,3.5,3.5,73,0.00,CLR,,0.00,WeatherDisplay:10.37,2013-02-02 01:14:00,
2013-02-02 03:15:00,51.3,42.9,29.62,North,0,3.5,3.5,73,0.00,CLR,,0.00,WeatherDisplay:10.37,2013-02-02 01:15:00,
2013-02-02 03:16:00,51.1,42.7,29.62,North,0,2.3,2.3,73,0.00,CLR,,0.00,WeatherDisplay:10.37,2013-02-02 01:16:00,
2013-02-02 03:19:00,51.3,42.9,29.62,North,0,3.5,3.5,73,0.00,CLR,,0.00,WeatherDisplay:10.37,2013-02-02 01:19:00,
2013-02-02 03:20:00,51.3,42.9,29.62,North,0,3.5,3.5,73,0.00,CLR,,0.00,WeatherDisplay:10.37,2013-02-02 01:20:00,
2013-02-02 03:21:00,51.1,42.4,29.62,North,0,2.3,2.3,72,0.00,CLR,,0.00,WeatherDisplay:10.37,2013-02-02 01:21:00,
2013-02-02 03:24:00,50.9,42.2,29.62,North,0,2.3,2.3,72,0.00,CLR,,0.00,WeatherDisplay:10.37,2013-02-02 01:24:00,
2013-02-02 03:25:00,50.9,42.2,29.62,North,0,2.3,2.3,72,0.00,CLR,,0.00,WeatherDisplay:10.37,2013-02-02 01:25:00,
2013-02-02 03:26:00,50.9,42.2,29.62,North,0,2.3,2.3,72,0.00,CLR,,0.00,WeatherDisplay:10.37,2013-02-02 01:26:00,
2013-02-02 03:29:00,50.7,41.7,29.62,North,0,2.3,2.3,71,0.00,CLR,,0.00,WeatherDisplay:10.37,2013-02-02 01:29:00,
2013-02-02 03:30:00,50.7,41.7,29.62,North,0,2.3,2.3,71,0.00,CLR,,0.00,WeatherDisplay:10.37,2013-02-02 01:30:00,
2013-02-02 03:31:00,50.7,41.7,29.62,North,0,1.1,0.0,71,0.00,CLR,,0.00,WeatherDisplay:10.37,2013-02-02 01:31:00,
2013-02-02 03:34:00,50.5,41.5,29.62,NNE,22,1.4,1.4,71,0.00,CLR,,0.00,WeatherDisplay:10.37,2013-02-02 01:34:00,
2013-02-02 03:35:00,50.5,41.5,29.62,NNE,22,2.0,2.0,71,0.00,CLR,,0.00,WeatherDisplay:10.37,2013-02-02 01:35:00,
2013-02-02 03:36:00,50.5,41.8,29.62,NNE,22,2.3,2.3,72,0.00,CLR,,0.00,WeatherDisplay:10.37,2013-02-02 01:36:00,
2013-02-02 03:40:00,50.4,41.3,29.62,NNE,22,0.0,0.0,71,0.00,CLR,,0.00,WeatherDisplay:10.37,2013-02-02 01:40:00,
2013-02-02 03:41:00,50.2,41.5,29.62,NNE,22,1.1,1.1,72,0.00,CLR,,0.00,WeatherDisplay:10.37,2013-02-02 01:41:00,
2013-02-02 03:42:00,50.2,41.5,29.62,NNE,22,1.1,1.1,72,0.00,CLR,,0.00,WeatherDisplay:10.37,2013-02-02 01:42:00,
2013-02-02 03:45:00,50.2,41.1,29.62,NNE,22,2.3,2.3,71,0.00,CLR,,0.00,WeatherDisplay:10.37,2013-02-02 01:45:00,
2013-02-02 03:47:00,50.2,41.5,29.59,NNE,22,2.3,2.3,72,0.00,CLR,,0.00,WeatherDisplay:10.37,2013-02-02 01:47:00,
2013-02-02 03:50:00,50.2,41.5,29.59,NNE,22,0.0,0.0,72,0.00,CLR,,0.00,WeatherDisplay:10.37,2013-02-02 01:50:00,
2013-02-02 03:52:00,50.0,41.3,29.59,NNE,22,0.0,0.0,72,0.00,CLR,,0.00,WeatherDisplay:10.37,2013-02-02 01:52:00,
2013-02-02 03:55:00,49.8,41.2,29.59,NNE,22,2.3,2.3,72,0.00,CLR,,0.00,WeatherDisplay:10.37,2013-02-02 01:55:00,
2013-02-02 03:56:00,49.8,41.2,29.59,NNE,22,2.3,2.3,72,0.00,CLR,,0.00,WeatherDisplay:10.37,2013-02-02 01:56:00,
2013-02-02 03:57:00,50.0,41.3,29.59,NNE,22,1.6,1.6,72,0.00,CLR,,0.00,WeatherDisplay:10.37,2013-02-02 01:57:00,
2013-02-02 04:00:00,50.0,41.7,29.59,NNE,22,2.3,2.3,73,0.00,CLR,,0.00,WeatherDisplay:10.37,2013-02-02 02:00:00,
2013-02-02 04:01:00,49.8,41.5,29.59,NNE,22,2.3,2.3,73,0.00,CLR,,0.00,WeatherDisplay:10.37,2013-02-02 02:01:00,
2013-02-02 04:02:00,49.8,41.5,29.62,NNE,22,1.1,1.1,73,0.00,CLR,,0.00,WeatherDisplay:10.37,2013-02-02 02:02:00,
2013-02-02 04:05:00,49.6,41.3,29.62,NNE,22,1.6,1.6,73,0.00,CLR,,0.00,WeatherDisplay:10.37,2013-02-02 02:05:00,
2013-02-02 04:06:00,49.6,41.3,29.62,NNE,22,1.4,1.4,73,0.00,CLR,,0.00,WeatherDisplay:10.37,2013-02-02 02:06:00,
2013-02-02 04:07:00,49.6,41.3,29.62,NNE,22,2.3,2.3,73,0.00,CLR,,0.00,WeatherDisplay:10.37,2013-02-02 02:07:00,
2013-02-02 04:11:00,49.6,41.7,29.62,NNE,22,1.1,0.0,74,0.00,CLR,,0.00,WeatherDisplay:10.37,2013-02-02 02:11:00,
2013-02-02 04:12:00,49.6,41.7,29.62,NNE,22,0.0,0.0,74,0.00,CLR,,0.00,WeatherDisplay:10.37,2013-02-02 02:12:00,
2013-02-02 04:16:00,49.6,41.7,29.59,NNE,22,0.0,0.0,74,0.00,CLR,,0.00,WeatherDisplay:10.37,2013-02-02 02:16:00,
2013-02-02 04:17:00,49.5,41.5,29.59,NNE,22,1.1,1.1,74,0.00,CLR,,0.00,WeatherDisplay:10.37,2013-02-02 02:17:00,
2013-02-02 04:21:00,49.5,42.2,29.59,NNE,22,2.3,2.3,76,0.00,CLR,,0.00,WeatherDisplay:10.37,2013-02-02 02:21:00,
2013-02-02 04:22:00,49.5,42.2,29.59,NNE,22,2.3,2.3,76,0.00,CLR,,0.00,WeatherDisplay:10.37,2013-02-02 02:22:00,
2013-02-02 04:26:00,49.5,42.2,29.59,NNE,22,2.3,2.9,76,0.00,CLR,,0.00,WeatherDisplay:10.37,2013-02-02 02:26:00,
2013-02-02 04:27:00,49.5,42.2,29.59,NNE,22,2.3,2.9,76,0.00,CLR,,0.00,WeatherDisplay:10.37,2013-02-02 02:27:00,
2013-02-02 04:31:00,49.8,42.9,29.59,NE,45,0.0,0.0,77,0.00,CLR,,0.00,WeatherDisplay:10.37,2013-02-02 02:31:00,
2013-02-02 04:32:00,49.8,43.2,29.59,NE,45,0.0,0.0,78,0.00,CLR,,0.00,WeatherDisplay:10.37,2013-02-02 02:32:00,
2013-02-02 04:36:00,49.6,42.7,29.59,NE,45,0.0,0.0,77,0.00,CLR,,0.00,WeatherDisplay:10.37,2013-02-02 02:36:00,
2013-02-02 04:37:00,49.6,42.7,29.59,NE,45,0.0,0.0,77,0.00,CLR,,0.00,WeatherDisplay:10.37,2013-02-02 02:37:00,
2013-02-02 04:38:00,49.6,42.7,29.59,NE,45,0.0,0.0,77,0.00,CLR,,0.00,WeatherDisplay:10.37,2013-02-02 02:38:00,
2013-02-02 04:41:00,49.6,43.1,29.59,NE,45,2.6,2.6,78,0.00,CLR,,0.00,WeatherDisplay:10.37,2013-02-02 02:41:00,
2013-02-02 04:42:00,49.6,43.1,29.59,NE,45,3.5,3.5,78,0.00,CLR,,0.00,WeatherDisplay:10.37,2013-02-02 02:42:00,
2013-02-02 04:43:00,49.6,43.1,29.59,NE,45,3.5,3.5,78,0.00,CLR,,0.00,WeatherDisplay:10.37,2013-02-02 02:43:00,
2013-02-02 04:46:00,49.6,43.1,29.59,NE,45,2.3,2.3,78,0.00,CLR,,0.00,WeatherDisplay:10.37,2013-02-02 02:46:00,
2013-02-02 04:47:00,49.6,43.1,29.59,NE,45,2.3,2.3,78,0.00,CLR,,0.00,WeatherDisplay:10.37,2013-02-02 02:47:00,
2013-02-02 04:48:00,49.6,43.1,29.59,NE,45,2.3,2.3,78,0.00,CLR,,0.00,WeatherDisplay:10.37,2013-02-02 02:48:00,
2013-02-02 04:51:00,49.5,42.9,29.59,NE,45,2.3,2.3,78,0.00,CLR,,0.00,WeatherDisplay:10.37,2013-02-02 02:51:00,
2013-02-02 04:52:00,49.5,43.2,29.59,NE,45,2.3,2.3,79,0.00,CLR,,0.00,WeatherDisplay:10.37,2013-02-02 02:52:00,
2013-02-02 04:53:00,49.5,43.2,29.59,NE,45,2.3,2.3,79,0.00,CLR,,0.00,WeatherDisplay:10.37,2013-02-02 02:53:00,
2013-02-02 04:56:00,49.3,42.7,29.59,NE,45,1.4,1.4,78,0.00,CLR,,0.00,WeatherDisplay:10.37,2013-02-02 02:56:00,
2013-02-02 04:57:00,49.3,42.7,29.59,NE,45,2.0,2.0,78,0.00,CLR,,0.00,WeatherDisplay:10.37,2013-02-02 02:57:00,
2013-02-02 04:58:00,49.3,42.7,29.59,NE,45,2.0,2.0,78,0.00,CLR,,0.00,WeatherDisplay:10.37,2013-02-02 02:58:00,
2013-02-02 05:01:00,49.3,43.0,29.59,NE,45,2.2,2.2,79,0.00,CLR,,0.00,WeatherDisplay:10.37,2013-02-02 03:01:00,
2013-02-02 05:02:00,49.3,43.0,29.59,NE,45,2.4,2.4,79,0.00,CLR,,0.00,WeatherDisplay:10.37,2013-02-02 03:02:00,
2013-02-02 05:03:00,49.3,43.0,29.59,NE,45,2.3,2.3,79,0.00,CLR,,0.00,WeatherDisplay:10.37,2013-02-02 03:03:00,
2013-02-02 05:06:00,49.5,43.5,29.59,NE,45,2.4,2.4,80,0.00,CLR,,0.00,WeatherDisplay:10.37,2013-02-02 03:06:00,
2013-02-02 05:07:00,49.5,43.5,29.59,NE,45,2.4,2.4,80,0.00,CLR,,0.00,WeatherDisplay:10.37,2013-02-02 03:07:00,
2013-02-02 05:08:00,49.5,43.5,29.59,NE,45,2.3,2.4,80,0.00,CLR,,0.00,WeatherDisplay:10.37,2013-02-02 03:08:00,
2013-02-02 05:12:00,49.5,43.9,29.59,NE,45,2.4,2.4,81,0.00,CLR,,0.00,WeatherDisplay:10.37,2013-02-02 03:12:00,
2013-02-02 05:13:00,49.5,43.9,29.59,NE,45,2.3,2.3,81,0.00,CLR,,0.00,WeatherDisplay:10.37,2013-02-02 03:13:00,
2013-02-02 05:17:00,49.5,43.9,29.59,NE,45,2.3,2.3,81,0.00,CLR,,0.00,WeatherDisplay:10.37,2013-02-02 03:17:00,
2013-02-02 05:18:00,49.3,43.7,29.59,NE,45,1.1,1.1,81,0.00,CLR,,0.00,WeatherDisplay:10.37,2013-02-02 03:18:00,
2013-02-02 05:22:00,49.3,43.7,29.59,NE,45,2.3,2.3,81,0.00,CLR,,0.00,WeatherDisplay:10.37,2013-02-02 03:22:00,
2013-02-02 05:23:00,49.1,43.5,29.59,NE,45,2.6,2.6,81,0.00,CLR,,0.00,WeatherDisplay:10.37,2013-02-02 03:23:00,
2013-02-02 05:27:00,49.1,43.5,29.59,NE,45,3.5,3.5,81,0.00,CLR,,0.00,WeatherDisplay:10.37,2013-02-02 03:27:00,
2013-02-02 05:28:00,49.1,43.8,29.59,NE,45,3.5,3.5,82,0.00,CLR,,0.00,WeatherDisplay:10.37,2013-02-02 03:28:00,
2013-02-02 05:29:00,49.1,43.8,29.59,NE,45,3.5,3.5,82,0.00,CLR,,0.00,WeatherDisplay:10.37,2013-02-02 03:29:00,
2013-02-02 05:32:00,49.1,43.8,29.59,NE,45,2.6,2.6,82,0.00,CLR,,0.00,WeatherDisplay:10.37,2013-02-02 03:32:00,
2013-02-02 05:33:00,49.1,43.8,29.59,NE,45,2.4,2.4,82,0.00,CLR,,0.00,WeatherDisplay:10.37,2013-02-02 03:33:00,
2013-02-02 05:34:00,49.1,43.8,29.59,NE,45,2.3,2.3,82,0.00,CLR,,0.00,WeatherDisplay:10.37,2013-02-02 03:34:00,
2013-02-02 05:37:00,49.1,43.8,29.59,NE,45,2.3,2.3,82,0.00,CLR,,0.00,WeatherDisplay:10.37,2013-02-02 03:37:00,
2013-02-02 05:38:00,49.1,43.8,29.59,NE,45,1.1,1.1,82,0.00,CLR,,0.00,WeatherDisplay:10.37,2013-02-02 03:38:00,
2013-02-02 05:39:00,48.9,43.7,29.59,NE,45,1.6,1.6,82,0.00,CLR,,0.00,WeatherDisplay:10.37,2013-02-02 03:39:00,
2013-02-02 05:42:00,48.9,44.0,29.59,NE,45,2.6,2.6,83,0.00,CLR,,0.00,WeatherDisplay:10.37,2013-02-02 03:42:00,
2013-02-02 05:43:00,48.9,44.0,29.59,NE,45,2.9,2.9,83,0.00,CLR,,0.00,WeatherDisplay:10.37,2013-02-02 03:43:00,
2013-02-02 05:45:00,49.1,44.5,29.59,NE,45,2.0,3.0,84,0.00,CLR,,0.00,WeatherDisplay:10.37,2013-02-02 03:45:00,
2013-02-02 05:47:00,49.3,45.0,29.59,NE,45,0.0,0.0,85,0.00,CLR,,0.00,WeatherDisplay:10.37,2013-02-02 03:47:00,
2013-02-02 05:48:00,49.3,45.0,29.59,NE,45,0.0,0.0,85,0.00,CLR,,0.00,WeatherDisplay:10.37,2013-02-02 03:48:00,
2013-02-02 05:50:00,49.3,45.0,29.59,NE,45,0.0,0.0,85,0.00,CLR,,0.00,WeatherDisplay:10.37,2013-02-02 03:50:00,
2013-02-02 05:52:00,49.3,45.3,29.59,NE,45,2.3,2.4,86,0.00,CLR,,0.00,WeatherDisplay:10.37,2013-02-02 03:52:00,
2013-02-02 05:53:00,49.3,45.3,29.59,NE,45,2.4,2.4,86,0.00,CLR,,0.00,WeatherDisplay:10.37,2013-02-02 03:53:00,
2013-02-02 05:55:00,49.3,45.3,29.59,NE,45,2.3,2.4,86,0.00,CLR,,0.00,WeatherDisplay:10.37,2013-02-02 03:55:00,
2013-02-02 05:57:00,49.3,45.3,29.59,NE,45,2.6,2.6,86,0.00,CLR,,0.00,WeatherDisplay:10.37,2013-02-02 03:57:00,
2013-02-02 05:58:00,49.3,45.3,29.59,NE,45,2.4,2.4,86,0.00,CLR,,0.00,WeatherDisplay:10.37,2013-02-02 03:58:00,
2013-02-02 06:00:00,49.3,45.3,29.59,NE,45,2.3,2.3,86,0.00,CLR,,0.00,WeatherDisplay:10.37,2013-02-02 04:00:00,
2013-02-02 06:03:00,49.5,45.8,29.56,ENE,68,2.6,2.9,87,0.00,CLR,,0.00,WeatherDisplay:10.37,2013-02-02 04:03:00,
2013-02-02 06:05:00,49.5,46.1,29.56,ENE,68,2.3,2.3,88,0.00,CLR,,0.00,WeatherDisplay:10.37,2013-02-02 04:05:00,
2013-02-02 06:08:00,49.5,46.1,29.56,ENE,68,2.3,2.3,88,0.00,CLR,,0.00,WeatherDisplay:10.37,2013-02-02 04:08:00,
2013-02-02 06:10:00,49.5,46.1,29.56,ENE,68,2.4,2.4,88,0.00,CLR,,0.00,WeatherDisplay:10.37,2013-02-02 04:10:00,
2013-02-02 06:13:00,49.5,46.1,29.56,ENE,68,0.0,0.0,88,0.00,CLR,,0.00,WeatherDisplay:10.37,2013-02-02 04:13:00,
2013-02-02 06:15:00,49.5,46.1,29.56,ENE,68,0.0,0.0,88,0.00,CLR,,0.00,WeatherDisplay:10.37,2013-02-02 04:15:00,
2013-02-02 06:18:00,49.5,46.4,29.59,NE,45,0.0,0.0,89,0.00,CLR,,0.00,WeatherDisplay:10.37,2013-02-02 04:18:00,
2013-02-02 06:20:00,49.5,46.1,29.59,NE,45,0.0,0.0,88,0.00,CLR,,0.00,WeatherDisplay:10.37,2013-02-02 04:20:00,
2013-02-02 06:21:00,49.5,46.1,29.59,NE,45,0.0,0.0,88,0.00,CLR,,0.00,WeatherDisplay:10.37,2013-02-02 04:21:00,
2013-02-02 06:23:00,49.6,46.2,29.59,NE,45,0.0,0.0,88,0.00,CLR,,0.00,WeatherDisplay:10.37,2013-02-02 04:23:00,
2013-02-02 06:25:00,49.6,46.5,29.59,NE,45,0.0,0.0,89,0.00,CLR,,0.00,WeatherDisplay:10.37,2013-02-02 04:25:00,
2013-02-02 06:26:00,49.6,46.5,29.59,NE,45,0.0,0.0,89,0.00,CLR,,0.00,WeatherDisplay:10.37,2013-02-02 04:26:00,
2013-02-02 06:28:00,49.6,46.5,29.59,NE,45,0.0,0.0,89,0.00,CLR,,0.00,WeatherDisplay:10.37,2013-02-02 04:28:00,
2013-02-02 06:31:00,49.5,46.4,29.59,NE,45,2.4,0.0,89,0.00,CLR,,0.00,WeatherDisplay:10.37,2013-02-02 04:31:00,
2013-02-02 06:33:00,49.5,46.4,29.59,NE,45,2.3,2.4,89,0.00,CLR,,0.00,WeatherDisplay:10.37,2013-02-02 04:33:00,
2013-02-02 06:36:00,49.5,46.6,29.59,NE,45,3.5,3.5,90,0.00,CLR,,0.00,WeatherDisplay:10.37,2013-02-02 04:36:00,
2013-02-02 06:38:00,49.5,46.4,29.59,NE,45,2.3,2.3,89,0.00,CLR,,0.00,WeatherDisplay:10.37,2013-02-02 04:38:00,
2013-02-02 06:39:00,49.5,46.4,29.59,NE,45,2.3,2.3,89,0.00,CLR,,0.00,WeatherDisplay:10.37,2013-02-02 04:39:00,
2013-02-02 06:41:00,49.5,46.4,29.59,NE,45,3.5,3.5,89,0.00,CLR,,0.00,WeatherDisplay:10.37,2013-02-02 04:41:00,
2013-02-02 06:43:00,49.5,46.6,29.59,NE,45,2.9,2.9,90,0.00,CLR,,0.00,WeatherDisplay:10.37,2013-02-02 04:43:00,
2013-02-02 06:44:00,49.5,46.6,29.59,NE,45,3.5,3.5,90,0.00,CLR,,0.00,WeatherDisplay:10.37,2013-02-02 04:44:00,
2013-02-02 06:46:00,49.5,46.6,29.59,NE,45,3.5,3.5,90,0.00,CLR,,0.00,WeatherDisplay:10.37,2013-02-02 04:46:00,
2013-02-02 06:49:00,49.5,46.6,29.59,NE,45,2.3,2.3,90,0.00,CLR,,0.00,WeatherDisplay:10.37,2013-02-02 04:49:00,
2013-02-02 06:51:00,49.5,46.6,29.59,NE,45,2.3,2.3,90,0.00,CLR,,0.00,WeatherDisplay:10.37,2013-02-02 04:51:00,
2013-02-02 06:54:00,49.3,46.5,29.59,NE,45,2.4,2.4,90,0.00,CLR,,0.00,WeatherDisplay:10.37,2013-02-02 04:54:00,
2013-02-02 06:56:00,49.5,46.6,29.59,NE,45,3.5,3.5,90,0.00,CLR,,0.00,WeatherDisplay:10.37,2013-02-02 04:56:00,
2013-02-02 06:59:00,49.5,46.6,29.59,NE,45,2.3,2.3,90,0.00,CLR,,0.00,WeatherDisplay:10.37,2013-02-02 04:59:00,
2013-02-02 07:01:00,49.5,46.6,29.59,NE,45,2.3,2.3,90,0.00,CLR,,0.00,WeatherDisplay:10.37,2013-02-02 05:01:00,
2013-02-02 07:06:00,49.3,46.5,29.59,NE,45,2.3,2.3,90,0.00,CLR,,0.00,WeatherDisplay:10.37,2013-02-02 05:06:00,
2013-02-02 07:11:00,49.3,46.5,29.59,NE,45,0.0,0.0,90,0.00,CLR,,0.00,WeatherDisplay:10.37,2013-02-02 05:11:00,
2013-02-02 07:16:00,49.1,46.3,29.59,NE,45,0.0,0.0,90,0.00,CLR,,0.00,WeatherDisplay:10.37,2013-02-02 05:16:00,
2013-02-02 07:21:00,48.9,46.1,29.59,NE,45,0.0,0.0,90,0.00,CLR,,0.00,WeatherDisplay:10.37,2013-02-02 05:21:00,
2013-02-02 07:22:00,48.9,46.1,29.59,NE,45,0.0,0.0,90,0.00,CLR,,0.00,WeatherDisplay:10.37,2013-02-02 05:22:00,
2013-02-02 07:26:00,48.9,46.1,29.59,NE,45,3.6,3.6,90,0.00,CLR,,0.00,WeatherDisplay:10.37,2013-02-02 05:26:00,
2013-02-02 07:27:00,49.1,46.6,29.59,NE,45,3.5,3.5,91,0.00,CLR,,0.00,WeatherDisplay:10.37,2013-02-02 05:27:00,
2013-02-02 07:31:00,49.3,47.3,29.59,NE,45,3.5,3.8,93,0.00,CLR,,0.00,WeatherDisplay:10.37,2013-02-02 05:31:00,
2013-02-02 07:32:00,49.5,47.5,29.59,NE,45,4.7,4.7,93,0.00,CLR,,0.00,WeatherDisplay:10.37,2013-02-02 05:32:00,
2013-02-02 07:36:00,49.5,47.8,29.59,ENE,68,3.5,3.5,94,0.00,CLR,,0.00,WeatherDisplay:10.37,2013-02-02 05:36:00,
2013-02-02 07:37:00,49.6,48.0,29.59,ENE,68,3.5,3.5,94,0.00,CLR,,0.00,WeatherDisplay:10.37,2013-02-02 05:37:00,
2013-02-02 07:41:00,49.8,48.4,29.59,ENE,68,2.9,2.9,95,0.00,CLR,,0.00,WeatherDisplay:10.37,2013-02-02 05:41:00,
2013-02-02 07:42:00,49.8,48.4,29.59,ENE,68,2.3,2.6,95,0.00,CLR,,0.00,WeatherDisplay:10.37,2013-02-02 05:42:00,
2013-02-02 07:43:00,49.8,48.4,29.59,ENE,68,3.1,3.1,95,0.00,CLR,,0.00,WeatherDisplay:10.37,2013-02-02 05:43:00,
2013-02-02 07:46:00,49.8,48.4,29.59,ENE,68,2.6,2.6,95,0.00,CLR,,0.00,WeatherDisplay:10.37,2013-02-02 05:46:00,
2013-02-02 07:47:00,49.8,48.4,29.59,ENE,68,3.5,3.5,95,0.00,CLR,,0.00,WeatherDisplay:10.37,2013-02-02 05:47:00,
2013-02-02 07:49:00,49.8,48.2,29.59,NE,45,3.6,3.6,94,0.00,CLR,,0.00,WeatherDisplay:10.37,2013-02-02 05:49:00,
2013-02-02 07:51:00,50.0,48.3,29.59,ENE,68,4.6,4.6,94,0.00,CLR,,0.00,WeatherDisplay:10.37,2013-02-02 05:51:00,
2013-02-02 07:52:00,50.0,48.3,29.59,ENE,68,4.6,4.6,94,0.00,CLR,,0.00,WeatherDisplay:10.37,2013-02-02 05:52:00,
2013-02-02 07:54:00,50.0,48.3,29.59,ENE,68,2.4,2.4,94,0.00,CLR,,0.00,WeatherDisplay:10.37,2013-02-02 05:54:00,
2013-02-02 07:56:00,50.2,48.5,29.59,ENE,68,3.5,3.5,94,0.00,CLR,,0.00,WeatherDisplay:10.37,2013-02-02 05:56:00,
2013-02-02 07:57:00,50.2,48.5,29.59,ENE,68,2.3,2.3,94,0.00,CLR,,0.00,WeatherDisplay:10.37,2013-02-02 05:57:00,
2013-02-02 07:59:00,50.2,48.5,29.59,ENE,68,2.3,2.3,94,0.00,CLR,,0.00,WeatherDisplay:10.37,2013-02-02 05:59:00,
2013-02-02 08:02:00,50.4,48.7,29.59,ENE,68,2.3,2.3,94,0.00,CLR,,0.00,WeatherDisplay:10.37,2013-02-02 06:02:00,
2013-02-02 08:04:00,50.4,48.4,29.59,ENE,68,2.3,2.3,93,0.00,CLR,,0.00,WeatherDisplay:10.37,2013-02-02 06:04:00,
2013-02-02 08:07:00,50.5,48.6,29.59,ENE,68,3.8,3.8,93,0.00,CLR,,0.00,WeatherDisplay:10.37,2013-02-02 06:07:00,
2013-02-02 08:09:00,50.7,48.8,29.59,ENE,68,3.5,3.5,93,0.00,CLR,,0.00,WeatherDisplay:10.37,2013-02-02 06:09:00,
2013-02-02 08:12:00,50.9,48.9,29.59,ENE,68,2.3,2.3,93,0.00,CLR,,0.00,WeatherDisplay:10.37,2013-02-02 06:12:00,
2013-02-02 08:14:00,51.1,49.1,29.59,ENE,68,2.3,2.3,93,0.00,CLR,,0.00,WeatherDisplay:10.37,2013-02-02 06:14:00,
2013-02-02 08:17:00,51.3,49.3,29.59,ENE,68,2.4,2.4,93,0.00,CLR,,0.00,WeatherDisplay:10.37,2013-02-02 06:17:00,
2013-02-02 08:18:00,51.4,49.5,29.59,ENE,68,3.6,3.6,93,0.00,CLR,,0.00,WeatherDisplay:10.37,2013-02-02 06:18:00,
2013-02-02 08:20:00,51.4,49.5,29.59,ENE,68,3.5,3.5,93,0.00,CLR,,0.00,WeatherDisplay:10.37,2013-02-02 06:20:00,
2013-02-02 08:22:00,51.6,49.4,29.59,NNE,22,4.6,4.6,92,0.00,CLR,,0.00,WeatherDisplay:10.37,2013-02-02 06:22:00,
2013-02-02 08:23:00,51.6,49.4,29.59,NNE,22,4.6,4.6,92,0.00,CLR,,0.00,WeatherDisplay:10.37,2013-02-02 06:23:00,
2013-02-02 08:25:00,51.6,49.4,29.59,NNE,22,2.6,2.6,92,0.00,CLR,,0.00,WeatherDisplay:10.37,2013-02-02 06:25:00,
2013-02-02 08:27:00,52.0,49.7,29.59,NE,45,2.3,2.3,92,0.00,CLR,,0.00,WeatherDisplay:10.37,2013-02-02 06:27:00,
2013-02-02 08:28:00,52.0,49.7,29.59,NE,45,1.1,1.6,92,0.00,CLR,,0.00,WeatherDisplay:10.37,2013-02-02 06:28:00,
2013-02-02 08:30:00,52.3,50.1,29.59,NE,45,2.3,2.3,92,0.00,CLR,,0.00,WeatherDisplay:10.37,2013-02-02 06:30:00,
2013-02-02 08:32:00,52.7,50.4,29.59,NE,45,2.3,2.3,92,0.00,CLR,,0.00,WeatherDisplay:10.37,2013-02-02 06:32:00,
2013-02-02 08:33:00,52.9,50.6,29.59,NE,45,2.3,2.3,92,0.00,CLR,,0.00,WeatherDisplay:10.37,2013-02-02 06:33:00,
2013-02-02 08:35:00,53.1,50.8,29.59,NE,45,1.1,0.0,92,0.00,CLR,,0.00,WeatherDisplay:10.37,2013-02-02 06:35:00,
2013-02-02 08:38:00,53.6,51.3,29.59,NE,45,1.6,1.6,92,0.00,CLR,,0.00,WeatherDisplay:10.37,2013-02-02 06:38:00,
2013-02-02 08:40:00,53.8,51.2,29.59,NE,45,1.1,1.6,91,0.00,CLR,,0.00,WeatherDisplay:10.37,2013-02-02 06:40:00,
2013-02-02 08:43:00,54.1,51.6,29.59,NE,45,2.9,2.9,91,0.00,CLR,,0.00,WeatherDisplay:10.37,2013-02-02 06:43:00,
2013-02-02 08:44:00,54.1,51.6,29.59,NE,45,2.4,2.6,91,0.00,CLR,,0.00,WeatherDisplay:10.37,2013-02-02 06:44:00,
2013-02-02 08:45:00,54.1,51.3,29.59,NE,45,3.5,3.5,90,0.00,CLR,,0.00,WeatherDisplay:10.37,2013-02-02 06:45:00,
2013-02-02 08:48:00,54.3,51.1,29.59,NE,45,2.3,2.3,89,0.00,CLR,,0.00,WeatherDisplay:10.37,2013-02-02 06:48:00,
2013-02-02 08:49:00,54.3,51.1,29.59,NE,45,2.3,2.3,89,0.00,CLR,,0.00,WeatherDisplay:10.37,2013-02-02 06:49:00,
2013-02-02 08:50:00,54.5,51.3,29.59,NE,45,2.3,2.3,89,0.00,CLR,,0.00,WeatherDisplay:10.37,2013-02-02 06:50:00,
2013-02-02 08:53:00,54.5,51.0,29.59,NE,45,1.1,0.0,88,0.00,CLR,,0.00,WeatherDisplay:10.37,2013-02-02 06:53:00,
2013-02-02 08:54:00,54.7,51.2,29.59,NE,45,1.1,0.0,88,0.00,CLR,,0.00,WeatherDisplay:10.37,2013-02-02 06:54:00,
2013-02-02 08:55:00,54.7,51.2,29.59,NE,45,0.0,0.0,88,0.00,CLR,,0.00,WeatherDisplay:10.37,2013-02-02 06:55:00,
2013-02-02 08:58:00,54.9,51.1,29.59,ENE,68,2.3,2.3,87,0.00,CLR,,0.00,WeatherDisplay:10.37,2013-02-02 06:58:00,
2013-02-02 08:59:00,54.9,51.1,29.59,ENE,68,2.3,2.3,87,0.00,CLR,,0.00,WeatherDisplay:10.37,2013-02-02 06:59:00,
2013-02-02 09:00:00,55.0,51.2,29.59,ENE,68,2.3,2.3,87,0.00,CLR,,0.00,WeatherDisplay:10.37,2013-02-02 07:00:00,
2013-02-02 09:03:00,55.2,51.1,29.59,ENE,68,0.0,0.0,86,0.00,CLR,,0.00,WeatherDisplay:10.37,2013-02-02 07:03:00,
2013-02-02 09:04:00,55.2,51.1,29.59,ENE,68,0.0,0.0,86,0.00,CLR,,0.00,WeatherDisplay:10.37,2013-02-02 07:04:00,
2013-02-02 09:06:00,55.2,51.1,29.59,ENE,68,0.0,0.0,86,0.00,CLR,,0.00,WeatherDisplay:10.37,2013-02-02 07:06:00,
2013-02-02 09:08:00,55.2,51.1,29.59,ENE,68,1.1,1.1,86,0.00,CLR,,0.00,WeatherDisplay:10.37,2013-02-02 07:08:00,
2013-02-02 09:09:00,55.2,51.1,29.59,ENE,68,1.1,1.1,86,0.00,CLR,,0.00,WeatherDisplay:10.37,2013-02-02 07:09:00,
2013-02-02 09:11:00,55.4,51.0,29.59,ENE,68,0.0,0.0,85,0.00,CLR,,0.00,WeatherDisplay:10.37,2013-02-02 07:11:00,
2013-02-02 09:14:00,55.6,51.1,29.59,ENE,68,1.1,1.1,85,0.00,CLR,,0.00,WeatherDisplay:10.37,2013-02-02 07:14:00,
2013-02-02 09:15:00,55.8,51.3,29.59,ENE,68,0.0,0.0,85,0.00,CLR,,0.00,WeatherDisplay:10.37,2013-02-02 07:15:00,
2013-02-02 09:16:00,55.8,51.3,29.62,ENE,68,0.0,0.0,85,0.00,CLR,,0.00,WeatherDisplay:10.37,2013-02-02 07:16:00,
2013-02-02 09:19:00,55.9,51.5,29.62,ENE,68,1.6,0.0,85,0.00,CLR,,0.00,WeatherDisplay:10.37,2013-02-02 07:19:00,
2013-02-02 09:20:00,55.9,51.5,29.62,East,90,2.3,2.3,85,0.00,CLR,,0.00,WeatherDisplay:10.37,2013-02-02 07:20:00,
2013-02-02 09:21:00,55.9,51.5,29.62,East,90,2.3,2.3,85,0.00,CLR,,0.00,WeatherDisplay:10.37,2013-02-02 07:21:00,
2013-02-02 09:24:00,56.1,51.4,29.62,ESE,112,2.3,2.3,84,0.00,CLR,,0.00,WeatherDisplay:10.37,2013-02-02 07:24:00,
2013-02-02 09:25:00,56.1,51.4,29.62,ESE,112,2.2,2.2,84,0.00,CLR,,0.00,WeatherDisplay:10.37,2013-02-02 07:25:00,
2013-02-02 09:26:00,56.3,51.5,29.62,ESE,112,2.3,2.3,84,0.00,CLR,,0.00,WeatherDisplay:10.37,2013-02-02 07:26:00,
2013-02-02 09:29:00,56.5,51.7,29.62,ESE,112,1.1,1.1,84,0.00,CLR,,0.00,WeatherDisplay:10.37,2013-02-02 07:29:00,
2013-02-02 09:30:00,56.5,51.7,29.62,ESE,112,1.1,0.0,84,0.00,CLR,,0.00,WeatherDisplay:10.37,2013-02-02 07:30:00,
2013-02-02 09:31:00,56.8,52.1,29.59,ESE,112,0.0,0.0,84,0.00,CLR,,0.00,WeatherDisplay:10.37,2013-02-02 07:31:00,
2013-02-02 09:34:00,57.2,52.4,29.59,ESE,112,1.1,1.1,84,0.00,CLR,,0.00,WeatherDisplay:10.37,2013-02-02 07:34:00,
2013-02-02 09:35:00,57.2,52.4,29.59,ESE,112,1.1,1.1,84,0.00,CLR,,0.00,WeatherDisplay:10.37,2013-02-02 07:35:00,
2013-02-02 09:36:00,57.4,52.6,29.59,ESE,112,2.3,2.3,84,0.00,CLR,,0.00,WeatherDisplay:10.37,2013-02-02 07:36:00,
2013-02-02 09:39:00,57.6,52.4,29.59,ESE,112,0.0,0.9,83,0.00,CLR,,0.00,WeatherDisplay:10.37,2013-02-02 07:39:00,
2013-02-02 09:40:00,57.6,52.4,29.59,ESE,112,1.1,1.1,83,0.00,CLR,,0.00,WeatherDisplay:10.37,2013-02-02 07:40:00,
2013-02-02 09:41:00,57.7,52.6,29.59,ESE,112,2.3,2.3,83,0.00,CLR,,0.00,WeatherDisplay:10.37,2013-02-02 07:41:00,
2013-02-02 09:44:00,57.9,52.8,29.59,ESE,112,0.0,0.0,83,0.00,CLR,,0.00,WeatherDisplay:10.37,2013-02-02 07:44:00,
2013-02-02 09:45:00,58.1,53.0,29.59,ESE,112,2.3,0.0,83,0.00,CLR,,0.00,WeatherDisplay:10.37,2013-02-02 07:45:00,
2013-02-02 09:46:00,58.5,53.3,29.59,ESE,112,2.3,2.3,83,0.00,CLR,,0.00,WeatherDisplay:10.37,2013-02-02 07:46:00,
2013-02-02 09:49:00,59.2,54.0,29.59,ESE,112,0.0,0.0,83,0.00,CLR,,0.00,WeatherDisplay:10.37,2013-02-02 07:49:00,
2013-02-02 09:50:00,59.4,54.2,29.59,ESE,112,0.0,0.0,83,0.00,CLR,,0.00,WeatherDisplay:10.37,2013-02-02 07:50:00,
2013-02-02 09:51:00,59.4,54.2,29.59,ESE,112,0.0,0.0,83,0.00,CLR,,0.00,WeatherDisplay:10.37,2013-02-02 07:51:00,
2013-02-02 09:54:00,59.9,54.1,29.59,ESE,112,0.0,0.0,81,0.00,CLR,,0.00,WeatherDisplay:10.37,2013-02-02 07:54:00,
2013-02-02 09:55:00,60.1,54.2,29.59,ESE,112,0.0,0.0,81,0.00,CLR,,0.00,WeatherDisplay:10.37,2013-02-02 07:55:00,
2013-02-02 09:56:00,60.3,54.4,29.59,ESE,112,0.0,0.0,81,0.00,CLR,,0.00,WeatherDisplay:10.37,2013-02-02 07:56:00,
2013-02-02 09:57:00,60.3,54.4,29.59,ESE,112,0.0,0.0,81,0.00,CLR,,0.00,WeatherDisplay:10.37,2013-02-02 07:57:00,
2013-02-02 09:59:00,60.4,54.2,29.59,ESE,112,2.3,0.0,80,0.00,CLR,,0.00,WeatherDisplay:10.37,2013-02-02 07:59:00,
2013-02-02 10:00:00,60.4,53.9,29.59,ESE,112,0.0,0.0,79,0.00,CLR,,0.00,WeatherDisplay:10.37,2013-02-02 08:00:00,
2013-02-02 10:01:00,60.4,53.5,29.59,ESE,112,0.0,0.0,78,0.00,CLR,,0.00,WeatherDisplay:10.37,2013-02-02 08:01:00,
2013-02-02 10:05:00,61.0,53.7,29.59,ESE,112,0.0,0.0,77,0.00,CLR,,0.00,WeatherDisplay:10.37,2013-02-02 08:05:00,
2013-02-02 10:06:00,61.0,53.7,29.59,ESE,112,0.0,0.0,77,0.00,CLR,,0.00,WeatherDisplay:10.37,2013-02-02 08:06:00,
2013-02-02 10:07:00,61.0,53.7,29.59,ESE,112,0.0,0.0,77,0.00,CLR,,0.00,WeatherDisplay:10.37,2013-02-02 08:07:00,
2013-02-02 10:10:00,61.2,53.5,29.59,ESE,112,0.9,0.0,76,0.00,CLR,,0.00,WeatherDisplay:10.37,2013-02-02 08:10:00,
2013-02-02 10:11:00,61.2,53.5,29.59,ESE,112,2.0,0.0,76,0.00,CLR,,0.00,WeatherDisplay:10.37,2013-02-02 08:11:00,
2013-02-02 10:12:00,61.2,53.5,29.59,ESE,112,2.3,2.3,76,0.00,CLR,,0.00,WeatherDisplay:10.37,2013-02-02 08:12:00,
2013-02-02 10:15:00,61.2,52.4,29.59,ESE,112,2.3,2.3,73,0.00,CLR,,0.00,WeatherDisplay:10.37,2013-02-02 08:15:00,
2013-02-02 10:16:00,61.2,52.4,29.59,ESE,112,2.3,2.3,73,0.00,CLR,,0.00,WeatherDisplay:10.37,2013-02-02 08:16:00,
2013-02-02 10:17:00,61.2,51.7,29.59,ESE,112,2.3,2.3,71,0.00,CLR,,0.00,WeatherDisplay:10.37,2013-02-02 08:17:00,
2013-02-02 10:20:00,61.2,51.3,29.59,ESE,112,1.1,1.1,70,0.00,CLR,,0.00,WeatherDisplay:10.37,2013-02-02 08:20:00,
2013-02-02 10:21:00,61.2,51.3,29.59,ESE,112,1.1,1.1,70,0.00,CLR,,0.00,WeatherDisplay:10.37,2013-02-02 08:21:00,
2013-02-02 10:22:00,61.3,51.5,29.59,ESE,112,1.6,1.6,70,0.00,CLR,,0.00,WeatherDisplay:10.37,2013-02-02 08:22:00,
2013-02-02 10:25:00,61.7,51.4,29.59,ESE,112,1.1,1.1,69,0.00,CLR,,0.00,WeatherDisplay:10.37,2013-02-02 08:25:00,
2013-02-02 10:26:00,61.7,51.4,29.59,ESE,112,1.1,1.1,69,0.00,CLR,,0.00,WeatherDisplay:10.37,2013-02-02 08:26:00,
2013-02-02 10:28:00,61.7,51.4,29.59,ESE,112,0.0,0.0,69,0.00,CLR,,0.00,WeatherDisplay:10.37,2013-02-02 08:28:00,
2013-02-02 10:31:00,62.4,52.5,29.59,ESE,112,0.0,0.0,70,0.00,CLR,,0.00,WeatherDisplay:10.37,2013-02-02 08:31:00,
2013-02-02 10:33:00,62.8,51.7,29.59,ESE,112,2.3,0.0,67,0.00,CLR,,0.00,WeatherDisplay:10.37,2013-02-02 08:33:00,
2013-02-02 10:36:00,63.1,52.4,29.59,ESE,112,2.2,0.0,68,0.00,CLR,,0.00,WeatherDisplay:10.37,2013-02-02 08:36:00,
2013-02-02 10:38:00,63.5,52.3,29.59,ESE,112,1.1,0.0,67,0.00,CLR,,0.00,WeatherDisplay:10.37,2013-02-02 08:38:00,
2013-02-02 10:41:00,63.7,52.1,29.59,ESE,112,1.1,0.0,66,0.00,CLR,,0.00,WeatherDisplay:10.37,2013-02-02 08:41:00,
2013-02-02 10:42:00,63.7,52.1,29.59,ESE,112,1.1,0.0,66,0.00,CLR,,0.00,WeatherDisplay:10.37,2013-02-02 08:42:00,
2013-02-02 10:43:00,63.9,52.3,29.59,ESE,112,1.1,0.0,66,0.00,CLR,,0.00,WeatherDisplay:10.37,2013-02-02 08:43:00,
2013-02-02 10:46:00,63.7,49.1,29.59,WSW,248,4.6,4.6,59,0.00,CLR,,0.00,WeatherDisplay:10.37,2013-02-02 08:46:00,
2013-02-02 10:47:00,63.5,49.4,29.59,WSW,248,4.6,4.6,60,0.00,CLR,,0.00,WeatherDisplay:10.37,2013-02-02 08:47:00,
2013-02-02 10:48:00,63.5,49.4,29.59,West,270,2.4,2.4,60,0.00,CLR,,0.00,WeatherDisplay:10.37,2013-02-02 08:48:00,
2013-02-02 10:51:00,63.5,48.0,29.59,WSW,248,4.6,4.6,57,0.00,CLR,,0.00,WeatherDisplay:10.37,2013-02-02 08:51:00,
2013-02-02 10:52:00,63.3,47.8,29.59,WSW,248,4.6,4.6,57,0.00,CLR,,0.00,WeatherDisplay:10.37,2013-02-02 08:52:00,
2013-02-02 10:53:00,63.3,47.3,29.59,SSW,202,3.6,3.6,56,0.00,CLR,,0.00,WeatherDisplay:10.37,2013-02-02 08:53:00,
2013-02-02 10:56:00,63.3,47.3,29.59,South,180,4.6,4.6,56,0.00,CLR,,0.00,WeatherDisplay:10.37,2013-02-02 08:56:00,
2013-02-02 10:57:00,63.5,47.5,29.59,SW,225,4.9,4.9,56,0.00,CLR,,0.00,WeatherDisplay:10.37,2013-02-02 08:57:00,
2013-02-02 10:58:00,63.3,47.3,29.59,SSW,202,4.6,4.6,56,0.00,CLR,,0.00,WeatherDisplay:10.37,2013-02-02 08:58:00,
2013-02-02 11:01:00,63.0,46.5,29.59,SW,225,9.2,9.2,55,0.00,CLR,,0.00,WeatherDisplay:10.37,2013-02-02 09:01:00,
2013-02-02 11:02:00,63.0,46.5,29.59,SW,225,5.9,5.9,55,0.00,CLR,,0.00,WeatherDisplay:10.37,2013-02-02 09:02:00,
2013-02-02 11:03:00,62.8,46.8,29.59,SSW,202,5.8,5.8,56,0.00,CLR,,0.00,WeatherDisplay:10.37,2013-02-02 09:03:00,
2013-02-02 11:07:00,62.6,46.7,29.59,WSW,248,5.8,5.8,56,0.00,CLR,,0.00,WeatherDisplay:10.37,2013-02-02 09:07:00,
2013-02-02 11:09:00,63.0,47.5,29.59,West,270,3.5,3.5,57,0.00,CLR,,0.00,WeatherDisplay:10.37,2013-02-02 09:09:00,
2013-02-02 11:12:00,63.1,47.7,29.59,WSW,248,4.9,4.9,57,0.00,CLR,,0.00,WeatherDisplay:10.37,2013-02-02 09:12:00,
2013-02-02 11:14:00,63.3,47.8,29.59,SW,225,5.8,5.8,57,0.00,CLR,,0.00,WeatherDisplay:10.37,2013-02-02 09:14:00,
2013-02-02 11:17:00,63.1,47.2,29.59,WSW,248,7.1,7.1,56,0.00,CLR,,0.00,WeatherDisplay:10.37,2013-02-02 09:17:00,
2013-02-02 11:18:00,63.0,46.5,29.59,West,270,6.9,6.9,55,0.00,CLR,,0.00,WeatherDisplay:10.37,2013-02-02 09:18:00,
2013-02-02 11:19:00,63.0,46.5,29.59,SSW,202,5.8,5.8,55,0.00,CLR,,0.00,WeatherDisplay:10.37,2013-02-02 09:19:00,
2013-02-02 11:22:00,63.3,47.3,29.59,SSW,202,4.6,4.6,56,0.00,CLR,,0.00,WeatherDisplay:10.37,2013-02-02 09:22:00,
2013-02-02 11:23:00,63.7,47.7,29.59,SW,225,4.6,4.6,56,0.00,CLR,,0.00,WeatherDisplay:10.37,2013-02-02 09:23:00,
2013-02-02 11:24:00,63.7,47.7,29.59,SSW,202,4.6,4.6,56,0.00,CLR,,0.00,WeatherDisplay:10.37,2013-02-02 09:24:00,
2013-02-02 11:27:00,64.2,47.7,29.59,South,180,4.6,4.6,55,0.00,CLR,,0.00,WeatherDisplay:10.37,2013-02-02 09:27:00,
2013-02-02 11:28:00,64.4,47.4,29.59,West,270,7.8,7.8,54,0.00,CLR,,0.00,WeatherDisplay:10.37,2013-02-02 09:28:00,
2013-02-02 11:29:00,64.2,47.2,29.59,SSW,202,8.1,8.1,54,0.00,CLR,,0.00,WeatherDisplay:10.37,2013-02-02 09:29:00,
2013-02-02 11:32:00,64.2,45.7,29.59,SSW,202,9.2,9.2,51,0.00,CLR,,0.00,WeatherDisplay:10.37,2013-02-02 09:32:00,
2013-02-02 11:33:00,64.2,45.7,29.59,SSE,158,9.2,9.2,51,0.00,CLR,,0.00,WeatherDisplay:10.37,2013-02-02 09:33:00,
2013-02-02 11:34:00,63.9,45.4,29.59,SSW,202,5.8,5.9,51,0.00,CLR,,0.00,WeatherDisplay:10.37,2013-02-02 09:34:00,
2013-02-02 11:37:00,64.0,46.1,29.59,SW,225,6.9,6.9,52,0.00,CLR,,0.00,WeatherDisplay:10.37,2013-02-02 09:37:00,
2013-02-02 11:38:00,63.9,45.4,29.59,SW,225,5.8,5.8,51,0.00,CLR,,0.00,WeatherDisplay:10.37,2013-02-02 09:38:00,
2013-02-02 11:39:00,64.0,45.5,29.59,South,180,5.8,5.8,51,0.00,CLR,,0.00,WeatherDisplay:10.37,2013-02-02 09:39:00,
2013-02-02 11:42:00,64.2,45.7,29.59,SSE,158,5.8,5.8,51,0.00,CLR,,0.00,WeatherDisplay:10.37,2013-02-02 09:42:00,
2013-02-02 11:43:00,64.2,45.7,29.59,SSW,202,7.1,7.1,51,0.00,CLR,,0.00,WeatherDisplay:10.37,2013-02-02 09:43:00,
2013-02-02 11:44:00,64.4,45.3,29.59,SSW,202,6.9,6.9,50,0.00,CLR,,0.00,WeatherDisplay:10.37,2013-02-02 09:44:00,
2013-02-02 11:48:00,65.1,46.5,29.59,SSE,158,3.5,3.5,51,0.00,CLR,,0.00,WeatherDisplay:10.37,2013-02-02 09:48:00,
2013-02-02 11:49:00,65.5,46.3,29.59,SSE,158,4.0,4.0,50,0.00,CLR,,0.00,WeatherDisplay:10.37,2013-02-02 09:49:00,
2013-02-02 11:53:00,66.0,45.2,29.59,SSW,202,4.6,4.6,47,0.00,CLR,,0.00,WeatherDisplay:10.37,2013-02-02 09:53:00,
2013-02-02 11:54:00,65.8,45.6,29.59,West,270,5.8,5.8,48,0.00,CLR,,0.00,WeatherDisplay:10.37,2013-02-02 09:54:00,
2013-02-02 11:55:00,65.8,45.6,29.59,WSW,248,3.5,3.5,48,0.00,CLR,,0.00,WeatherDisplay:10.37,2013-02-02 09:55:00,
2013-02-02 11:58:00,66.6,45.1,29.59,SSW,202,5.8,5.8,46,0.00,CLR,,0.00,WeatherDisplay:10.37,2013-02-02 09:58:00,
2013-02-02 11:59:00,66.2,44.2,29.59,South,180,6.2,6.2,45,0.00,CLR,,0.00,WeatherDisplay:10.37,2013-02-02 09:59:00,
2013-02-02 12:00:00,66.2,44.2,29.59,South,180,5.8,5.8,45,0.00,CLR,,0.00,WeatherDisplay:10.37,2013-02-02 10:00:00,
2013-02-02 12:03:00,66.6,44.0,29.59,SSW,202,5.8,5.8,44,0.00,CLR,,0.00,WeatherDisplay:10.37,2013-02-02 10:03:00,
2013-02-02 12:04:00,66.6,44.0,29.59,SSW,202,4.6,4.6,44,0.00,CLR,,0.00,WeatherDisplay:10.37,2013-02-02 10:04:00,
2013-02-02 12:05:00,66.6,44.5,29.59,SSW,202,3.5,3.5,45,0.00,CLR,,0.00,WeatherDisplay:10.37,2013-02-02 10:05:00,
2013-02-02 12:09:00,67.1,45.0,29.59,WSW,248,3.5,3.5,45,0.00,CLR,,0.00,WeatherDisplay:10.37,2013-02-02 10:09:00,
2013-02-02 12:10:00,67.1,44.4,29.59,SSW,202,3.5,3.5,44,0.00,CLR,,0.00,WeatherDisplay:10.37,2013-02-02 10:10:00,
2013-02-02 12:14:00,66.6,44.0,29.59,South,180,4.6,4.6,44,0.00,CLR,,0.00,WeatherDisplay:10.37,2013-02-02 10:14:00,
2013-02-02 12:15:00,66.6,44.0,29.59,SSW,196,2.0,5.0,44,0.00,CLR,,0.00,WeatherDisplay:10.37,2013-02-02 10:15:00,
2013-02-02 12:16:00,66.9,44.9,29.59,SSE,158,7.8,7.8,45,0.00,CLR,,0.00,WeatherDisplay:10.37,2013-02-02 10:16:00,
2013-02-02 12:19:00,66.7,44.1,29.59,SSW,202,2.3,2.6,44,0.00,CLR,,0.00,WeatherDisplay:10.37,2013-02-02 10:19:00,
2013-02-02 12:20:00,66.9,44.3,29.59,SSE,158,4.6,4.6,44,0.00,CLR,,0.00,WeatherDisplay:10.37,2013-02-02 10:20:00,
2013-02-02 12:21:00,66.9,43.7,29.59,SSE,158,4.6,4.6,43,0.00,CLR,,0.00,WeatherDisplay:10.37,2013-02-02 10:21:00,
2013-02-02 12:24:00,67.5,44.2,29.59,SSW,202,5.8,5.8,43,0.00,CLR,,0.00,WeatherDisplay:10.37,2013-02-02 10:24:00,
2013-02-02 12:25:00,67.3,44.6,29.59,SSE,158,2.3,2.3,44,0.00,CLR,,0.00,WeatherDisplay:10.37,2013-02-02 10:25:00,
2013-02-02 12:26:00,67.5,44.8,29.59,SSE,158,3.5,3.5,44,0.00,CLR,,0.00,WeatherDisplay:10.37,2013-02-02 10:26:00,
2013-02-02 12:29:00,67.5,42.9,29.59,South,180,4.6,4.6,41,0.00,CLR,,0.00,WeatherDisplay:10.37,2013-02-02 10:29:00,
2013-02-02 12:30:00,67.1,42.6,29.59,SSE,158,2.3,2.3,41,0.00,CLR,,0.00,WeatherDisplay:10.37,2013-02-02 10:30:00,
2013-02-02 12:31:00,67.3,43.4,29.56,SSE,158,5.9,5.9,42,0.00,CLR,,0.00,WeatherDisplay:10.37,2013-02-02 10:31:00,
2013-02-02 12:34:00,54.0,33.1,29.56,South,180,3.5,3.5,45,0.00,CLR,,0.00,WeatherDisplay:10.37,2013-02-02 10:34:00,
2013-02-02 12:35:00,67.1,43.2,29.56,SSE,158,5.9,5.9,42,0.00,CLR,,0.00,WeatherDisplay:10.37,2013-02-02 10:35:00,
2013-02-02 12:36:00,67.1,43.8,29.56,SSW,202,5.8,5.8,43,0.00,CLR,,0.00,WeatherDisplay:10.37,2013-02-02 10:36:00,
2013-02-02 12:39:00,66.4,42.6,29.56,SW,225,4.6,4.6,42,0.00,CLR,,0.00,WeatherDisplay:10.37,2013-02-02 10:39:00,
2013-02-02 12:40:00,66.2,42.4,29.56,SSW,202,6.9,6.9,42,0.00,CLR,,0.00,WeatherDisplay:10.37,2013-02-02 10:40:00,
2013-02-02 12:41:00,66.0,43.5,29.56,SE,135,6.9,6.9,44,0.00,CLR,,0.00,WeatherDisplay:10.37,2013-02-02 10:41:00,
2013-02-02 12:44:00,65.8,43.3,29.56,SSW,202,5.8,5.8,44,0.00,CLR,,0.00,WeatherDisplay:10.37,2013-02-02 10:44:00,
2013-02-02 12:45:00,65.8,43.3,29.56,SSW,202,4.6,4.6,44,0.00,CLR,,0.00,WeatherDisplay:10.37,2013-02-02 10:45:00,
2013-02-02 12:46:00,65.5,43.0,29.59,South,180,8.1,8.1,44,0.00,CLR,,0.00,WeatherDisplay:10.37,2013-02-02 10:46:00,
2013-02-02 12:49:00,65.3,42.8,29.59,SSW,202,4.6,4.6,44,0.00,CLR,,0.00,WeatherDisplay:10.37,2013-02-02 10:49:00,
2013-02-02 12:50:00,65.3,42.8,29.59,SSW,202,4.6,4.6,44,0.00,CLR,,0.00,WeatherDisplay:10.37,2013-02-02 10:50:00,
2013-02-02 12:51:00,65.1,42.7,29.59,South,180,3.5,3.5,44,0.00,CLR,,0.00,WeatherDisplay:10.37,2013-02-02 10:51:00,
2013-02-02 12:55:00,65.3,42.8,29.59,South,180,4.6,4.6,44,0.00,CLR,,0.00,WeatherDisplay:10.37,2013-02-02 10:55:00,
2013-02-02 12:56:00,65.1,42.7,29.59,SSE,158,7.8,7.8,44,0.00,CLR,,0.00,WeatherDisplay:10.37,2013-02-02 10:56:00,
2013-02-02 13:00:00,65.1,42.7,29.59,SSE,158,4.6,4.6,44,0.00,CLR,,0.00,WeatherDisplay:10.37,2013-02-02 11:00:00,
2013-02-02 13:02:00,65.5,43.0,29.56,SSE,158,5.8,5.8,44,0.00,CLR,,0.00,WeatherDisplay:10.37,2013-02-02 11:02:00,
2013-02-02 13:05:00,64.9,41.9,29.56,SSW,202,9.2,9.2,43,0.00,CLR,,0.00,WeatherDisplay:10.37,2013-02-02 11:05:00,
2013-02-02 13:06:00,64.9,41.9,29.56,SSE,158,9.2,9.2,43,0.00,CLR,,0.00,WeatherDisplay:10.37,2013-02-02 11:06:00,
2013-02-02 13:07:00,64.9,41.9,29.56,SSE,158,5.8,5.8,43,0.00,CLR,,0.00,WeatherDisplay:10.37,2013-02-02 11:07:00,
2013-02-02 13:10:00,65.1,42.1,29.56,SSE,158,8.1,8.1,43,0.00,CLR,,0.00,WeatherDisplay:10.37,2013-02-02 11:10:00,
2013-02-02 13:11:00,65.3,41.6,29.56,South,180,6.9,6.9,42,0.00,CLR,,0.00,WeatherDisplay:10.37,2013-02-02 11:11:00,
2013-02-02 13:12:00,66.0,43.5,29.56,SSE,158,2.6,2.6,44,0.00,CLR,,0.00,WeatherDisplay:10.37,2013-02-02 11:12:00,
2013-02-02 13:15:00,65.8,41.5,29.56,SSE,158,5.8,5.8,41,0.00,CLR,,0.00,WeatherDisplay:10.37,2013-02-02 11:15:00,
2013-02-02 13:16:00,65.7,41.3,29.56,South,180,5.8,5.8,41,0.00,CLR,,0.00,WeatherDisplay:10.37,2013-02-02 11:16:00,
2013-02-02 13:17:00,65.8,42.1,29.56,WNW,292,3.5,3.5,42,0.00,CLR,,0.00,WeatherDisplay:10.37,2013-02-02 11:17:00,
2013-02-02 13:20:00,65.8,41.5,29.56,SSE,158,10.4,10.4,41,0.00,CLR,,0.00,WeatherDisplay:10.37,2013-02-02 11:20:00,
2013-02-02 13:21:00,65.8,41.5,29.56,WSW,248,10.4,10.4,41,0.00,CLR,,0.00,WeatherDisplay:10.37,2013-02-02 11:21:00,
2013-02-02 13:22:00,65.8,41.5,29.56,SSE,158,9.7,9.7,41,0.00,CLR,,0.00,WeatherDisplay:10.37,2013-02-02 11:22:00,
2013-02-02 13:25:00,65.7,41.3,29.56,SSE,158,9.2,9.2,41,0.00,CLR,,0.00,WeatherDisplay:10.37,2013-02-02 11:25:00,
2013-02-02 13:26:00,65.7,40.0,29.56,South,180,13.8,13.8,39,0.00,CLR,,0.00,WeatherDisplay:10.37,2013-02-02 11:26:00,
2013-02-02 13:27:00,65.1,38.9,29.56,SSW,202,12.7,12.7,38,0.00,CLR,,0.00,WeatherDisplay:10.37,2013-02-02 11:27:00,
2013-02-02 13:30:00,65.3,40.3,29.56,SSE,158,9.7,9.7,40,0.00,CLR,,0.00,WeatherDisplay:10.37,2013-02-02 11:30:00,
2013-02-02 13:31:00,65.1,40.2,29.56,SSE,158,10.5,10.5,40,0.00,CLR,,0.00,WeatherDisplay:10.37,2013-02-02 11:31:00,
2013-02-02 13:32:00,64.9,40.7,29.56,SSE,158,13.8,13.8,41,0.00,CLR,,0.00,WeatherDisplay:10.37,2013-02-02 11:32:00,
2013-02-02 13:35:00,64.8,41.7,29.56,SSE,158,6.9,6.9,43,0.00,CLR,,0.00,WeatherDisplay:10.37,2013-02-02 11:35:00,
2013-02-02 13:36:00,64.8,41.7,29.56,SSE,158,10.5,10.5,43,0.00,CLR,,0.00,WeatherDisplay:10.37,2013-02-02 11:36:00,
2013-02-02 13:37:00,64.8,41.7,29.56,SE,135,15.0,15.0,43,0.00,CLR,,0.00,WeatherDisplay:10.37,2013-02-02 11:37:00,
2013-02-02 13:40:00,64.4,41.4,29.56,SSE,158,13.8,13.8,43,0.00,CLR,,0.00,WeatherDisplay:10.37,2013-02-02 11:40:00,
2013-02-02 13:41:00,64.4,41.4,29.56,SW,225,10.4,10.4,43,0.00,CLR,,0.00,WeatherDisplay:10.37,2013-02-02 11:41:00,
2013-02-02 13:42:00,64.2,41.8,29.56,SSE,158,5.8,5.8,44,0.00,CLR,,0.00,WeatherDisplay:10.37,2013-02-02 11:42:00,
2013-02-02 13:43:00,64.2,41.8,29.56,SSW,202,5.8,5.8,44,0.00,CLR,,0.00,WeatherDisplay:10.37,2013-02-02 11:43:00,
2013-02-02 13:45:00,64.8,42.3,29.56,SW,225,8.1,8.1,44,0.00,CLR,,0.00,WeatherDisplay:10.37,2013-02-02 11:45:00,
2013-02-02 13:46:00,64.6,42.2,29.56,SSW,202,5.8,5.8,44,0.00,CLR,,0.00,WeatherDisplay:10.37,2013-02-02 11:46:00,
2013-02-02 13:47:00,64.8,42.3,29.56,SSW,202,9.2,9.2,44,0.00,CLR,,0.00,WeatherDisplay:10.37,2013-02-02 11:47:00,
2013-02-02 13:48:00,64.8,42.3,29.56,SSW,202,5.8,6.2,44,0.00,CLR,,0.00,WeatherDisplay:10.37,2013-02-02 11:48:00,
2013-02-02 13:50:00,65.8,43.3,29.56,South,180,4.6,4.7,44,0.00,CLR,,0.00,WeatherDisplay:10.37,2013-02-02 11:50:00,
2013-02-02 13:51:00,66.0,43.5,29.56,SSE,158,5.8,5.8,44,0.00,CLR,,0.00,WeatherDisplay:10.37,2013-02-02 11:51:00,
2013-02-02 13:52:00,66.2,43.6,29.56,SSE,158,8.1,8.1,44,0.00,CLR,,0.00,WeatherDisplay:10.37,2013-02-02 11:52:00,
2013-02-02 13:53:00,66.2,43.6,29.56,SSE,158,8.1,8.1,44,0.00,CLR,,0.00,WeatherDisplay:10.37,2013-02-02 11:53:00,
2013-02-02 13:55:00,66.2,43.6,29.56,SSE,158,8.1,8.1,44,0.00,CLR,,0.00,WeatherDisplay:10.37,2013-02-02 11:55:00,
2013-02-02 13:56:00,66.2,43.6,29.56,SSE,158,3.5,3.5,44,0.00,CLR,,0.00,WeatherDisplay:10.37,2013-02-02 11:56:00,
2013-02-02 13:58:00,66.2,43.6,29.56,ESE,112,8.1,8.1,44,0.00,CLR,,0.00,WeatherDisplay:10.37,2013-02-02 11:58:00,
2013-02-02 14:00:00,65.7,43.1,29.56,SSE,158,15.0,15.0,44,0.00,CLR,,0.00,WeatherDisplay:10.37,2013-02-02 12:00:00,
2013-02-02 14:01:00,65.7,43.1,29.53,SSE,158,15.0,15.0,44,0.00,CLR,,0.00,WeatherDisplay:10.37,2013-02-02 12:01:00,
2013-02-02 14:03:00,65.5,43.6,29.53,South,180,10.4,10.4,45,0.00,CLR,,0.00,WeatherDisplay:10.37,2013-02-02 12:03:00,
2013-02-02 14:05:00,65.3,43.4,29.53,South,180,10.4,10.4,45,0.00,CLR,,0.00,WeatherDisplay:10.37,2013-02-02 12:05:00,
2013-02-02 14:06:00,65.7,43.7,29.53,SSW,202,9.2,9.2,45,0.00,CLR,,0.00,WeatherDisplay:10.37,2013-02-02 12:06:00,
2013-02-02 14:08:00,65.7,43.7,29.53,SSE,158,10.4,10.4,45,0.00,CLR,,0.00,WeatherDisplay:10.37,2013-02-02 12:08:00,
2013-02-02 14:11:00,65.7,43.7,29.53,South,180,8.1,8.1,45,0.00,CLR,,0.00,WeatherDisplay:10.37,2013-02-02 12:11:00,
2013-02-02 14:13:00,65.8,43.9,29.53,SSW,202,6.9,6.9,45,0.00,CLR,,0.00,WeatherDisplay:10.37,2013-02-02 12:13:00,
2013-02-02 14:16:00,65.8,43.3,29.56,SSE,158,11.5,11.5,44,0.00,CLR,,0.00,WeatherDisplay:10.37,2013-02-02 12:16:00,
2013-02-02 14:18:00,65.8,43.9,29.56,SSW,202,5.8,5.9,45,0.00,CLR,,0.00,WeatherDisplay:10.37,2013-02-02 12:18:00,
2013-02-02 14:21:00,65.7,43.7,29.56,SSW,202,12.7,12.7,45,0.00,CLR,,0.00,WeatherDisplay:10.37,2013-02-02 12:21:00,
2013-02-02 14:23:00,65.7,43.7,29.56,SW,225,9.2,9.2,45,0.00,CLR,,0.00,WeatherDisplay:10.37,2013-02-02 12:23:00,
2013-02-02 14:26:00,65.8,43.9,29.56,SSW,202,8.5,8.5,45,0.00,CLR,,0.00,WeatherDisplay:10.37,2013-02-02 12:26:00,
2013-02-02 14:28:00,65.5,43.6,29.56,SSW,202,5.8,5.8,45,0.00,CLR,,0.00,WeatherDisplay:10.37,2013-02-02 12:28:00,
2013-02-02 14:29:00,65.5,43.6,29.56,SE,135,7.6,7.6,45,0.00,CLR,,0.00,WeatherDisplay:10.37,2013-02-02 12:29:00,
2013-02-02 14:31:00,65.5,43.6,29.56,SSE,158,10.4,10.4,45,0.00,CLR,,0.00,WeatherDisplay:10.37,2013-02-02 12:31:00,
2013-02-02 14:34:00,65.7,43.7,29.56,SE,135,12.7,12.7,45,0.00,CLR,,0.00,WeatherDisplay:10.37,2013-02-02 12:34:00,
2013-02-02 14:36:00,65.3,43.4,29.56,SSE,158,12.7,12.7,45,0.00,CLR,,0.00,WeatherDisplay:10.37,2013-02-02 12:36:00,
2013-02-02 14:39:00,65.1,42.7,29.56,South,180,12.1,12.1,44,0.00,CLR,,0.00,WeatherDisplay:10.37,2013-02-02 12:39:00,
2013-02-02 14:41:00,65.5,43.0,29.56,WSW,248,5.8,5.8,44,0.00,CLR,,0.00,WeatherDisplay:10.37,2013-02-02 12:41:00,
2013-02-02 14:44:00,65.5,43.0,29.56,SSE,158,9.2,9.2,44,0.00,CLR,,0.00,WeatherDisplay:10.37,2013-02-02 12:44:00,
2013-02-02 14:46:00,65.3,42.8,29.56,SSE,158,9.2,9.2,44,0.00,CLR,,0.00,WeatherDisplay:10.37,2013-02-02 12:46:00,
2013-02-02 14:49:00,65.3,42.8,29.56,SSE,158,12.7,12.7,44,0.00,CLR,,0.00,WeatherDisplay:10.37,2013-02-02 12:49:00,
2013-02-02 14:52:00,65.8,43.9,29.56,SSE,158,8.1,8.1,45,0.00,CLR,,0.00,WeatherDisplay:10.37,2013-02-02 12:52:00,
2013-02-02 14:54:00,66.2,44.2,29.56,SSW,202,4.6,4.6,45,0.00,CLR,,0.00,WeatherDisplay:10.37,2013-02-02 12:54:00,
2013-02-02 14:57:00,65.8,43.9,29.56,SE,135,13.8,13.8,45,0.00,CLR,,0.00,WeatherDisplay:10.37,2013-02-02 12:57:00,
2013-02-02 14:59:00,65.7,43.7,29.56,SSW,202,5.8,5.8,45,0.00,CLR,,0.00,WeatherDisplay:10.37,2013-02-02 12:59:00,
2013-02-02 15:02:00,65.1,43.2,29.56,SSE,158,8.1,8.1,45,0.00,CLR,,0.00,WeatherDisplay:10.37,2013-02-02 13:02:00,
2013-02-02 15:04:00,65.3,43.4,29.56,South,180,8.1,8.1,45,0.00,CLR,,0.00,WeatherDisplay:10.37,2013-02-02 13:04:00,
2013-02-02 15:08:00,65.5,44.1,29.56,SSE,158,12.7,12.7,46,0.00,CLR,,0.00,WeatherDisplay:10.37,2013-02-02 13:08:00,
2013-02-02 15:09:00,65.3,44.0,29.56,SSE,158,12.7,12.7,46,0.00,CLR,,0.00,WeatherDisplay:10.37,2013-02-02 13:09:00,
2013-02-02 15:13:00,65.5,44.1,29.56,SSE,158,8.5,8.5,46,0.00,CLR,,0.00,WeatherDisplay:10.37,2013-02-02 13:13:00,
2013-02-02 15:14:00,65.5,44.1,29.56,SSE,158,10.4,10.4,46,0.00,CLR,,0.00,WeatherDisplay:10.37,2013-02-02 13:14:00,
2013-02-02 15:18:00,65.3,44.0,29.56,SSE,158,14.5,14.5,46,0.00,CLR,,0.00,WeatherDisplay:10.37,2013-02-02 13:18:00,
2013-02-02 15:20:00,65.3,44.0,29.56,SE,135,15.0,15.0,46,0.00,CLR,,0.00,WeatherDisplay:10.37,2013-02-02 13:20:00,
2013-02-02 15:23:00,64.9,43.7,29.56,SSE,158,10.4,10.4,46,0.00,CLR,,0.00,WeatherDisplay:10.37,2013-02-02 13:23:00,
2013-02-02 15:25:00,65.1,43.8,29.56,SE,135,6.9,6.9,46,0.00,CLR,,0.00,WeatherDisplay:10.37,2013-02-02 13:25:00,
2013-02-02 15:28:00,65.1,43.8,29.56,SSE,158,11.5,11.5,46,0.00,CLR,,0.00,WeatherDisplay:10.37,2013-02-02 13:28:00,
2013-02-02 15:29:00,65.3,44.0,29.56,SE,135,11.5,11.5,46,0.00,CLR,,0.00,WeatherDisplay:10.37,2013-02-02 13:29:00,
2013-02-02 15:30:00,65.5,44.1,29.56,SSW,202,8.1,8.1,46,0.00,CLR,,0.00,WeatherDisplay:10.37,2013-02-02 13:30:00,
2013-02-02 15:33:00,65.3,43.4,29.59,South,180,12.7,12.7,45,0.00,CLR,,0.00,WeatherDisplay:10.37,2013-02-02 13:33:00,
2013-02-02 15:34:00,65.3,43.4,29.59,SSE,158,5.8,7.4,45,0.00,CLR,,0.00,WeatherDisplay:10.37,2013-02-02 13:34:00,
2013-02-02 15:35:00,65.3,44.0,29.59,SSW,202,8.1,8.1,46,0.00,CLR,,0.00,WeatherDisplay:10.37,2013-02-02 13:35:00,
2013-02-02 15:38:00,65.3,44.0,29.59,SSW,202,5.8,5.8,46,0.00,CLR,,0.00,WeatherDisplay:10.37,2013-02-02 13:38:00,
2013-02-02 15:39:00,65.5,44.1,29.59,SSW,202,5.8,5.8,46,0.00,CLR,,0.00,WeatherDisplay:10.37,2013-02-02 13:39:00,
2013-02-02 15:40:00,65.5,44.1,29.59,SSE,158,7.8,7.8,46,0.00,CLR,,0.00,WeatherDisplay:10.37,2013-02-02 13:40:00,
2013-02-02 15:44:00,65.1,44.4,29.59,SSE,158,8.1,8.1,47,0.00,CLR,,0.00,WeatherDisplay:10.37,2013-02-02 13:44:00,
2013-02-02 15:45:00,64.9,44.8,29.59,South,180,8.5,8.5,48,0.00,CLR,,0.00,WeatherDisplay:10.37,2013-02-02 13:45:00,
2013-02-02 15:46:00,64.9,44.8,29.56,South,180,11.5,11.5,48,0.00,CLR,,0.00,WeatherDisplay:10.37,2013-02-02 13:46:00,
2013-02-02 15:49:00,64.8,45.1,29.56,SE,135,10.4,10.4,49,0.00,CLR,,0.00,WeatherDisplay:10.37,2013-02-02 13:49:00,
2013-02-02 15:50:00,64.8,45.1,29.56,ESE,112,10.4,10.4,49,0.00,CLR,,0.00,WeatherDisplay:10.37,2013-02-02 13:50:00,
2013-02-02 15:51:00,64.8,45.1,29.56,SSE,158,9.2,9.2,49,0.00,CLR,,0.00,WeatherDisplay:10.37,2013-02-02 13:51:00,
2013-02-02 15:54:00,64.9,44.8,29.56,SE,135,6.9,6.9,48,0.00,CLR,,0.00,WeatherDisplay:10.37,2013-02-02 13:54:00,
2013-02-02 15:55:00,64.9,44.8,29.56,SSE,156,5.0,9.0,48,0.00,CLR,,0.00,WeatherDisplay:10.37,2013-02-02 13:55:00,
2013-02-02 15:56:00,64.8,44.1,29.56,ESE,112,10.4,10.4,47,0.00,CLR,,0.00,WeatherDisplay:10.37,2013-02-02 13:56:00,
2013-02-02 15:59:00,64.8,45.1,29.56,SE,135,9.2,9.2,49,0.00,CLR,,0.00,WeatherDisplay:10.37,2013-02-02 13:59:00,
2013-02-02 16:00:00,64.8,45.1,29.56,ESE,112,9.2,9.2,49,0.00,CLR,,0.00,WeatherDisplay:10.37,2013-02-02 14:00:00,
2013-02-02 16:01:00,64.8,44.6,29.56,ESE,112,8.1,8.1,48,0.00,CLR,,0.00,WeatherDisplay:10.37,2013-02-02 14:01:00,
2013-02-02 16:04:00,64.6,43.9,29.56,SSE,158,10.4,10.4,47,0.00,CLR,,0.00,WeatherDisplay:10.37,2013-02-02 14:04:00,
2013-02-02 16:05:00,64.6,44.4,29.56,SSE,158,12.8,12.8,48,0.00,CLR,,0.00,WeatherDisplay:10.37,2013-02-02 14:05:00,
2013-02-02 16:06:00,64.4,44.3,29.56,SSE,158,15.0,15.0,48,0.00,CLR,,0.00,WeatherDisplay:10.37,2013-02-02 14:06:00,
2013-02-02 16:09:00,64.2,44.1,29.56,South,180,8.1,8.1,48,0.00,CLR,,0.00,WeatherDisplay:10.37,2013-02-02 14:09:00,
2013-02-02 16:10:00,64.2,43.6,29.56,SE,135,13.8,13.8,47,0.00,CLR,,0.00,WeatherDisplay:10.37,2013-02-02 14:10:00,
2013-02-02 16:11:00,64.2,43.6,29.56,South,180,13.8,13.8,47,0.00,CLR,,0.00,WeatherDisplay:10.37,2013-02-02 14:11:00,
2013-02-02 16:14:00,64.6,43.3,29.56,SSE,158,12.7,12.7,46,0.00,CLR,,0.00,WeatherDisplay:10.37,2013-02-02 14:14:00,
2013-02-02 16:15:00,64.6,43.3,29.56,ESE,112,9.2,9.2,46,0.00,CLR,,0.00,WeatherDisplay:10.37,2013-02-02 14:15:00,
2013-02-02 16:16:00,64.6,43.3,29.53,South,180,5.8,5.8,46,0.00,CLR,,0.00,WeatherDisplay:10.37,2013-02-02 14:16:00,
2013-02-02 16:20:00,64.6,42.7,29.53,SSE,158,11.5,11.5,45,0.00,CLR,,0.00,WeatherDisplay:10.37,2013-02-02 14:20:00,
2013-02-02 16:21:00,64.4,42.6,29.53,SSE,158,10.4,10.4,45,0.00,CLR,,0.00,WeatherDisplay:10.37,2013-02-02 14:21:00,
2013-02-02 16:25:00,64.4,43.2,29.53,SSE,158,9.2,9.2,46,0.00,CLR,,0.00,WeatherDisplay:10.37,2013-02-02 14:25:00,
2013-02-02 16:26:00,64.2,43.6,29.53,South,180,13.8,13.8,47,0.00,CLR,,0.00,WeatherDisplay:10.37,2013-02-02 14:26:00,
2013-02-02 16:27:00,64.4,43.7,29.53,SE,135,13.8,13.8,47,0.00,CLR,,0.00,WeatherDisplay:10.37,2013-02-02 14:27:00,
2013-02-02 16:30:00,64.4,43.7,29.53,SSE,158,10.4,10.4,47,0.00,CLR,,0.00,WeatherDisplay:10.37,2013-02-02 14:30:00,
2013-02-02 16:31:00,64.4,43.7,29.53,SSE,158,8.1,8.1,47,0.00,CLR,,0.00,WeatherDisplay:10.37,2013-02-02 14:31:00,
2013-02-02 16:32:00,64.2,44.1,29.53,NNW,338,10.2,10.2,48,0.00,CLR,,0.00,WeatherDisplay:10.37,2013-02-02 14:32:00,
2013-02-02 16:35:00,64.8,44.6,29.53,SSE,158,6.9,7.4,48,0.00,CLR,,0.00,WeatherDisplay:10.37,2013-02-02 14:35:00,
2013-02-02 16:36:00,64.4,44.8,29.53,SE,135,17.3,17.3,49,0.00,CLR,,0.00,WeatherDisplay:10.37,2013-02-02 14:36:00,
2013-02-02 16:37:00,64.6,45.0,29.53,SE,135,17.3,17.3,49,0.00,CLR,,0.00,WeatherDisplay:10.37,2013-02-02 14:37:00,
2013-02-02 16:40:00,64.9,45.8,29.53,SSE,158,8.1,8.1,50,0.00,CLR,,0.00,WeatherDisplay:10.37,2013-02-02 14:40:00,
2013-02-02 16:41:00,64.6,45.5,29.53,SE,135,10.7,10.7,50,0.00,CLR,,0.00,WeatherDisplay:10.37,2013-02-02 14:41:00,
2013-02-02 16:42:00,64.6,46.0,29.53,SSE,158,12.7,12.7,51,0.00,CLR,,0.00,WeatherDisplay:10.37,2013-02-02 14:42:00,
2013-02-02 16:46:00,64.8,46.7,29.53,SSE,158,10.2,10.2,52,0.00,CLR,,0.00,WeatherDisplay:10.37,2013-02-02 14:46:00,
2013-02-02 16:47:00,64.6,46.6,29.53,SSE,158,10.4,10.4,52,0.00,CLR,,0.00,WeatherDisplay:10.37,2013-02-02 14:47:00,
2013-02-02 16:48:00,64.6,47.1,29.53,SSE,158,5.8,6.7,53,0.00,CLR,,0.00,WeatherDisplay:10.37,2013-02-02 14:48:00,
2013-02-02 16:51:00,64.2,47.7,29.53,SSE,158,12.7,12.7,55,0.00,CLR,,0.00,WeatherDisplay:10.37,2013-02-02 14:51:00,
2013-02-02 16:52:00,64.2,47.7,29.53,South,180,12.7,12.7,55,0.00,CLR,,0.00,WeatherDisplay:10.37,2013-02-02 14:52:00,
2013-02-02 16:53:00,64.2,47.7,29.53,SSE,158,15.0,15.0,55,0.00,CLR,,0.00,WeatherDisplay:10.37,2013-02-02 14:53:00,
2013-02-02 16:56:00,64.0,48.5,29.53,SSE,158,11.5,11.5,57,0.00,CLR,,0.00,WeatherDisplay:10.37,2013-02-02 14:56:00,
2013-02-02 16:57:00,63.9,48.8,29.53,SE,135,11.5,11.5,58,0.00,CLR,,0.00,WeatherDisplay:10.37,2013-02-02 14:57:00,
2013-02-02 16:58:00,63.5,48.9,29.53,South,180,13.8,13.8,59,0.00,CLR,,0.00,WeatherDisplay:10.37,2013-02-02 14:58:00,
2013-02-02 17:01:00,63.3,49.2,29.53,SSE,158,9.2,9.2,60,0.00,CLR,,0.00,WeatherDisplay:10.37,2013-02-02 15:01:00,
2013-02-02 17:02:00,63.3,49.6,29.53,SSE,158,9.2,9.2,61,0.00,CLR,,0.00,WeatherDisplay:10.37,2013-02-02 15:02:00,
2013-02-02 17:03:00,63.1,49.9,29.53,SSE,158,13.8,13.8,62,0.00,CLR,,0.00,WeatherDisplay:10.37,2013-02-02 15:03:00,
2013-02-02 17:06:00,62.8,51.7,29.53,SSE,158,18.4,18.4,67,0.00,CLR,,0.00,WeatherDisplay:10.37,2013-02-02 15:06:00,
2013-02-02 17:07:00,62.8,51.7,29.53,SSW,202,10.4,10.4,67,0.00,CLR,,0.00,WeatherDisplay:10.37,2013-02-02 15:07:00,
2013-02-02 17:08:00,62.6,51.9,29.53,SSE,158,6.9,6.9,68,0.00,CLR,,0.00,WeatherDisplay:10.37,2013-02-02 15:08:00,
2013-02-02 17:11:00,61.9,52.8,29.53,SSE,158,13.2,13.2,72,0.00,CLR,,0.00,WeatherDisplay:10.37,2013-02-02 15:11:00,
2013-02-02 17:12:00,61.9,52.8,29.53,SSE,158,15.0,15.0,72,0.00,CLR,,0.00,WeatherDisplay:10.37,2013-02-02 15:12:00,
2013-02-02 17:13:00,61.9,53.1,29.53,SSE,158,12.7,12.7,73,0.00,CLR,,0.00,WeatherDisplay:10.37,2013-02-02 15:13:00,
2013-02-02 17:16:00,61.7,53.3,29.56,SSE,158,10.4,10.4,74,0.00,CLR,,0.00,WeatherDisplay:10.37,2013-02-02 15:16:00,
2013-02-02 17:17:00,61.7,53.3,29.56,SSE,158,12.7,12.7,74,0.00,CLR,,0.00,WeatherDisplay:10.37,2013-02-02 15:17:00,
2013-02-02 17:18:00,61.5,53.5,29.56,SSE,158,11.5,11.5,75,0.00,CLR,,0.00,WeatherDisplay:10.37,2013-02-02 15:18:00,
2013-02-02 17:21:00,61.3,53.7,29.56,SE,135,15.0,15.0,76,0.00,CLR,,0.00,WeatherDisplay:10.37,2013-02-02 15:21:00,
2013-02-02 17:22:00,61.3,53.7,29.56,SSE,158,13.8,13.8,76,0.00,CLR,,0.00,WeatherDisplay:10.37,2013-02-02 15:22:00,
2013-02-02 17:24:00,61.2,53.9,29.56,SSE,158,9.2,9.2,77,0.00,CLR,,0.00,WeatherDisplay:10.37,2013-02-02 15:24:00,
2013-02-02 17:26:00,61.0,53.4,29.56,SSE,158,4.6,4.6,76,0.00,CLR,,0.00,WeatherDisplay:10.37,2013-02-02 15:26:00,
2013-02-02 17:27:00,61.0,53.7,29.56,SSE,158,6.9,6.9,77,0.00,CLR,,0.00,WeatherDisplay:10.37,2013-02-02 15:27:00,
2013-02-02 17:28:00,61.0,53.7,29.56,South,180,7.6,7.6,77,0.00,CLR,,0.00,WeatherDisplay:10.37,2013-02-02 15:28:00,
2013-02-02 17:29:00,61.0,53.7,29.56,SSE,158,8.1,8.1,77,0.00,CLR,,0.00,WeatherDisplay:10.37,2013-02-02 15:29:00,
2013-02-02 17:32:00,60.8,53.2,29.53,SSE,158,7.6,7.6,76,0.00,CLR,,0.00,WeatherDisplay:10.37,2013-02-02 15:32:00,
2013-02-02 17:33:00,60.8,53.2,29.53,South,180,8.1,8.1,76,0.00,CLR,,0.00,WeatherDisplay:10.37,2013-02-02 15:33:00,
2013-02-02 17:34:00,60.8,53.2,29.53,South,180,10.2,10.2,76,0.00,CLR,,0.00,WeatherDisplay:10.37,2013-02-02 15:34:00,
2013-02-02 17:37:00,60.6,53.0,29.53,SSE,158,8.1,8.1,76,0.00,CLR,,0.00,WeatherDisplay:10.37,2013-02-02 15:37:00,
2013-02-02 17:38:00,60.6,52.6,29.53,SSE,158,8.1,8.1,75,0.00,CLR,,0.00,WeatherDisplay:10.37,2013-02-02 15:38:00,
2013-02-02 17:39:00,60.6,52.6,29.53,SSE,158,10.7,10.7,75,0.00,CLR,,0.00,WeatherDisplay:10.37,2013-02-02 15:39:00,
2013-02-02 17:42:00,60.4,52.5,29.53,SE,135,3.8,4.9,75,0.00,CLR,,0.00,WeatherDisplay:10.37,2013-02-02 15:42:00,
2013-02-02 17:43:00,60.4,52.5,29.53,SE,135,8.1,8.1,75,0.00,CLR,,0.00,WeatherDisplay:10.37,2013-02-02 15:43:00,
2013-02-02 17:45:00,60.4,51.7,29.53,SE,135,9.2,9.2,73,0.00,CLR,,0.00,WeatherDisplay:10.37,2013-02-02 15:45:00,
2013-02-02 17:47:00,60.4,51.7,29.53,SSE,158,9.4,9.4,73,0.00,CLR,,0.00,WeatherDisplay:10.37,2013-02-02 15:47:00,
2013-02-02 17:48:00,60.3,51.9,29.53,SE,135,9.2,9.2,74,0.00,CLR,,0.00,WeatherDisplay:10.37,2013-02-02 15:48:00,
2013-02-02 17:50:00,60.3,51.9,29.53,SSE,158,8.1,8.1,74,0.00,CLR,,0.00,WeatherDisplay:10.37,2013-02-02 15:50:00,
2013-02-02 17:52:00,60.3,51.9,29.53,SSE,158,9.2,9.2,74,0.00,CLR,,0.00,WeatherDisplay:10.37,2013-02-02 15:52:00,
2013-02-02 17:53:00,60.1,51.8,29.53,South,180,5.6,5.6,74,0.00,CLR,,0.00,WeatherDisplay:10.37,2013-02-02 15:53:00,
2013-02-02 17:55:00,60.1,52.1,29.53,SSW,202,8.1,8.1,75,0.00,CLR,,0.00,WeatherDisplay:10.37,2013-02-02 15:55:00,
2013-02-02 17:57:00,60.1,52.5,29.53,SSE,158,8.1,8.1,76,0.00,CLR,,0.00,WeatherDisplay:10.37,2013-02-02 15:57:00,
2013-02-02 17:58:00,60.1,52.5,29.53,SSE,158,8.1,8.1,76,0.00,CLR,,0.00,WeatherDisplay:10.37,2013-02-02 15:58:00,
2013-02-02 18:00:00,59.9,52.7,29.53,SSE,158,8.1,8.1,77,0.00,CLR,,0.00,WeatherDisplay:10.37,2013-02-02 16:00:00,
2013-02-02 18:02:00,59.9,53.0,29.53,SE,135,13.8,13.8,78,0.00,CLR,,0.00,WeatherDisplay:10.37,2013-02-02 16:02:00,
2013-02-02 18:03:00,59.9,53.4,29.53,SSE,158,9.2,9.2,79,0.00,CLR,,0.00,WeatherDisplay:10.37,2013-02-02 16:03:00,
2013-02-02 18:05:00,59.9,53.7,29.53,SSE,158,9.2,9.2,80,0.00,CLR,,0.00,WeatherDisplay:10.37,2013-02-02 16:05:00,
2013-02-02 18:07:00,59.9,53.7,29.53,SSE,158,6.9,6.9,80,0.00,CLR,,0.00,WeatherDisplay:10.37,2013-02-02 16:07:00,
2013-02-02 18:08:00,59.7,53.5,29.53,SSE,158,9.2,9.2,80,0.00,CLR,,0.00,WeatherDisplay:10.37,2013-02-02 16:08:00,
2013-02-02 18:10:00,59.7,53.9,29.53,SSE,158,5.9,6.0,81,0.00,CLR,,0.00,WeatherDisplay:10.37,2013-02-02 16:10:00,
2013-02-02 18:12:00,59.7,53.9,29.53,SE,135,7.8,7.8,81,0.00,CLR,,0.00,WeatherDisplay:10.37,2013-02-02 16:12:00,
2013-02-02 18:13:00,59.7,54.2,29.53,SSE,158,8.1,8.1,82,0.00,CLR,,0.00,WeatherDisplay:10.37,2013-02-02 16:13:00,
2013-02-02 18:16:00,59.5,54.0,29.53,SE,135,11.5,11.5,82,0.00,CLR,,0.00,WeatherDisplay:10.37,2013-02-02 16:16:00,
2013-02-02 18:17:00,59.5,54.4,29.53,SE,135,6.9,6.9,83,0.00,CLR,,0.00,WeatherDisplay:10.37,2013-02-02 16:17:00,
2013-02-02 18:18:00,59.5,54.4,29.53,SSE,158,8.1,8.1,83,0.00,CLR,,0.00,WeatherDisplay:10.37,2013-02-02 16:18:00,
2013-02-02 18:21:00,59.5,54.7,29.53,SSE,158,8.1,8.1,84,0.00,CLR,,0.00,WeatherDisplay:10.37,2013-02-02 16:21:00,
2013-02-02 18:23:00,59.5,55.0,29.53,SSE,158,9.2,9.2,85,0.00,CLR,,0.00,WeatherDisplay:10.37,2013-02-02 16:23:00,
2013-02-02 18:24:00,59.4,54.5,29.53,SE,135,4.6,4.6,84,0.00,CLR,,0.00,WeatherDisplay:10.37,2013-02-02 16:24:00,
2013-02-02 18:26:00,59.4,54.5,29.53,ESE,112,3.6,3.6,84,0.00,CLR,,0.00,WeatherDisplay:10.37,2013-02-02 16:26:00,
2013-02-02 18:28:00,59.4,54.8,29.53,SSE,158,8.1,8.1,85,0.00,CLR,,0.00,WeatherDisplay:10.37,2013-02-02 16:28:00,
2013-02-02 18:29:00,59.4,55.2,29.53,SSE,158,10.4,10.4,86,0.00,CLR,,0.00,WeatherDisplay:10.37,2013-02-02 16:29:00,
2013-02-02 18:31:00,59.2,55.3,29.56,SE,135,5.8,5.8,87,0.00,CLR,,0.00,WeatherDisplay:10.37,2013-02-02 16:31:00,
2013-02-02 18:33:00,59.2,55.6,29.56,SSE,158,6.9,6.9,88,0.00,CLR,,0.00,WeatherDisplay:10.37,2013-02-02 16:33:00,
2013-02-02 18:34:00,59.2,55.9,29.56,SE,135,8.1,8.1,89,0.00,CLR,,0.00,WeatherDisplay:10.37,2013-02-02 16:34:00,
2013-02-02 18:36:00,59.2,55.9,29.56,SE,135,8.1,8.1,89,0.00,CLR,,0.00,WeatherDisplay:10.37,2013-02-02 16:36:00,
2013-02-02 18:38:00,59.2,56.6,29.56,SSE,158,5.8,6.0,91,0.00,CLR,,0.00,WeatherDisplay:10.37,2013-02-02 16:38:00,
2013-02-02 18:39:00,59.0,56.1,29.56,SE,135,5.8,5.8,90,0.00,CLR,,0.00,WeatherDisplay:10.37,2013-02-02 16:39:00,
2013-02-02 18:41:00,59.0,56.1,29.56,SSE,158,3.6,3.6,90,0.00,CLR,,0.00,WeatherDisplay:10.37,2013-02-02 16:41:00,
2013-02-02 18:43:00,58.8,55.9,29.56,SSE,158,3.5,3.5,90,0.00,CLR,,0.00,WeatherDisplay:10.37,2013-02-02 16:43:00,
2013-02-02 18:44:00,58.8,55.9,29.56,SSE,158,4.6,4.6,90,0.00,CLR,,0.00,WeatherDisplay:10.37,2013-02-02 16:44:00,
2013-02-02 18:45:00,58.8,56.2,29.56,SSE,158,4.6,4.6,91,0.00,CLR,,0.00,WeatherDisplay:10.37,2013-02-02 16:45:00,
2013-02-02 18:46:00,58.8,56.2,29.56,SSE,158,5.8,5.8,91,0.00,CLR,,0.00,WeatherDisplay:10.37,2013-02-02 16:46:00,
2013-02-02 18:48:00,58.8,56.5,29.56,SSE,158,4.6,4.6,92,0.00,CLR,,0.00,WeatherDisplay:10.37,2013-02-02 16:48:00,
2013-02-02 18:51:00,58.8,56.8,29.56,SSE,158,4.6,4.6,93,0.00,CLR,,0.00,WeatherDisplay:10.37,2013-02-02 16:51:00,
2013-02-02 18:53:00,58.8,57.4,29.56,SSE,158,10.4,10.4,95,0.00,CLR,,0.00,WeatherDisplay:10.37,2013-02-02 16:53:00,
2013-02-02 18:56:00,58.8,57.7,29.56,SSE,158,3.5,3.5,96,0.00,CLR,,0.00,WeatherDisplay:10.37,2013-02-02 16:56:00,
2013-02-02 18:57:00,58.6,57.2,29.56,SSE,158,2.4,2.4,95,0.00,CLR,,0.00,WeatherDisplay:10.37,2013-02-02 16:57:00,
2013-02-02 18:58:00,58.6,57.2,29.56,SSE,158,5.4,5.4,95,0.00,CLR,,0.00,WeatherDisplay:10.37,2013-02-02 16:58:00,
2013-02-02 19:01:00,58.6,57.8,29.56,SSE,158,9.2,9.2,97,0.00,CLR,,0.00,WeatherDisplay:10.37,2013-02-02 17:01:00,
2013-02-02 19:02:00,58.6,57.8,29.56,SSE,158,9.2,9.2,97,0.00,CLR,,0.00,WeatherDisplay:10.37,2013-02-02 17:02:00,
2013-02-02 19:03:00,58.6,57.8,29.56,SSE,158,4.6,4.6,97,0.00,CLR,,0.00,WeatherDisplay:10.37,2013-02-02 17:03:00,
2013-02-02 19:06:00,58.6,57.8,29.56,South,180,5.8,5.8,97,0.00,CLR,,0.00,WeatherDisplay:10.37,2013-02-02 17:06:00,
2013-02-02 19:07:00,58.6,57.8,29.56,ESE,112,5.8,5.8,97,0.00,CLR,,0.00,WeatherDisplay:10.37,2013-02-02 17:07:00,
2013-02-02 19:08:00,58.6,57.8,29.56,SSE,158,4.6,4.6,97,0.00,CLR,,0.00,WeatherDisplay:10.37,2013-02-02 17:08:00,
2013-02-02 19:11:00,58.6,57.8,29.56,SSE,158,5.8,5.8,97,0.00,CLR,,0.00,WeatherDisplay:10.37,2013-02-02 17:11:00,
2013-02-02 19:12:00,58.6,57.8,29.56,SSE,158,5.8,5.8,97,0.00,CLR,,0.00,WeatherDisplay:10.37,2013-02-02 17:12:00,
2013-02-02 19:13:00,58.6,57.8,29.56,SSE,158,6.9,6.9,97,0.00,CLR,,0.00,WeatherDisplay:10.37,2013-02-02 17:13:00,
2013-02-02 19:16:00,58.8,57.7,29.56,SSE,158,9.2,9.2,96,0.00,CLR,,0.00,WeatherDisplay:10.37,2013-02-02 17:16:00,
2013-02-02 19:17:00,58.8,57.7,29.56,SSE,158,6.9,6.9,96,0.00,CLR,,0.00,WeatherDisplay:10.37,2013-02-02 17:17:00,
2013-02-02 19:18:00,58.8,57.7,29.56,SSE,158,6.9,6.9,96,0.00,CLR,,0.00,WeatherDisplay:10.37,2013-02-02 17:18:00,
2013-02-02 19:22:00,58.8,57.4,29.56,SSE,158,8.1,8.1,95,0.00,CLR,,0.00,WeatherDisplay:10.37,2013-02-02 17:22:00,
2013-02-02 19:23:00,58.6,57.2,29.56,SSE,158,6.9,6.9,95,0.00,CLR,,0.00,WeatherDisplay:10.37,2013-02-02 17:23:00,
2013-02-02 19:27:00,58.8,57.4,29.56,SSE,158,10.4,10.4,95,0.00,CLR,,0.00,WeatherDisplay:10.37,2013-02-02 17:27:00,
2013-02-02 19:28:00,58.8,57.4,29.56,SSE,158,10.4,10.4,95,0.00,CLR,,0.00,WeatherDisplay:10.37,2013-02-02 17:28:00,
2013-02-02 19:29:00,58.8,57.4,29.56,ESE,112,8.1,8.1,95,0.00,CLR,,0.00,WeatherDisplay:10.37,2013-02-02 17:29:00,
2013-02-02 19:32:00,58.8,57.4,29.56,SSW,202,5.8,5.8,95,0.00,CLR,,0.00,WeatherDisplay:10.37,2013-02-02 17:32:00,
2013-02-02 19:33:00,58.8,57.4,29.56,SSE,158,5.8,5.8,95,0.00,CLR,,0.00,WeatherDisplay:10.37,2013-02-02 17:33:00,
2013-02-02 19:34:00,58.8,57.4,29.56,SSW,202,5.8,5.8,95,0.00,CLR,,0.00,WeatherDisplay:10.37,2013-02-02 17:34:00,
2013-02-02 19:37:00,58.8,57.1,29.56,SSE,158,10.9,10.9,94,0.00,CLR,,0.00,WeatherDisplay:10.37,2013-02-02 17:37:00,
2013-02-02 19:38:00,58.8,56.8,29.56,SSE,158,11.5,11.5,93,0.00,CLR,,0.00,WeatherDisplay:10.37,2013-02-02 17:38:00,
2013-02-02 19:39:00,59.2,56.2,29.56,South,180,11.5,11.5,90,0.00,CLR,,0.00,WeatherDisplay:10.37,2013-02-02 17:39:00,
2013-02-02 19:42:00,59.4,55.8,29.56,SSE,158,14.0,14.0,88,0.00,CLR,,0.00,WeatherDisplay:10.37,2013-02-02 17:42:00,
2013-02-02 19:43:00,59.4,55.5,29.56,South,180,13.8,13.8,87,0.00,CLR,,0.00,WeatherDisplay:10.37,2013-02-02 17:43:00,
2013-02-02 19:44:00,59.4,55.5,29.56,SSE,158,13.8,13.8,87,0.00,CLR,,0.00,WeatherDisplay:10.37,2013-02-02 17:44:00,
2013-02-02 19:47:00,59.5,55.7,29.56,ESE,112,13.8,13.8,87,0.00,CLR,,0.00,WeatherDisplay:10.37,2013-02-02 17:47:00,
2013-02-02 19:48:00,59.5,55.7,29.56,SSE,158,13.8,13.8,87,0.00,CLR,,0.00,WeatherDisplay:10.37,2013-02-02 17:48:00,
2013-02-02 19:49:00,59.5,56.0,29.56,SE,135,6.9,9.0,88,0.00,CLR,,0.00,WeatherDisplay:10.37,2013-02-02 17:49:00,
2013-02-02 19:52:00,59.4,55.8,29.56,SSE,158,6.9,6.9,88,0.00,CLR,,0.00,WeatherDisplay:10.37,2013-02-02 17:52:00,
2013-02-02 19:53:00,59.4,55.8,29.56,SSE,158,7.4,7.4,88,0.00,CLR,,0.00,WeatherDisplay:10.37,2013-02-02 17:53:00,
2013-02-02 19:54:00,59.4,56.1,29.56,SSE,158,6.9,6.9,89,0.00,CLR,,0.00,WeatherDisplay:10.37,2013-02-02 17:54:00,
2013-02-02 19:57:00,59.4,56.4,29.56,SSE,158,11.5,11.5,90,0.00,CLR,,0.00,WeatherDisplay:10.37,2013-02-02 17:57:00,
2013-02-02 19:58:00,59.4,56.4,29.56,SSE,158,11.5,11.5,90,0.00,CLR,,0.00,WeatherDisplay:10.37,2013-02-02 17:58:00,
2013-02-02 19:59:00,59.4,56.4,29.56,SSE,158,11.5,11.5,90,0.00,CLR,,0.00,WeatherDisplay:10.37,2013-02-02 17:59:00,
2013-02-02 20:02:00,59.4,56.4,29.59,SSE,158,11.8,11.8,90,0.00,CLR,,0.00,WeatherDisplay:10.37,2013-02-02 18:02:00,
2013-02-02 20:03:00,59.4,56.4,29.59,SSE,158,12.7,12.7,90,0.00,CLR,,0.00,WeatherDisplay:10.37,2013-02-02 18:03:00,
2013-02-02 20:04:00,59.4,56.4,29.59,ENE,68,6.9,7.1,90,0.00,CLR,,0.00,WeatherDisplay:10.37,2013-02-02 18:04:00,
2013-02-02 20:07:00,59.2,55.9,29.59,ESE,112,3.5,3.6,89,0.00,CLR,,0.00,WeatherDisplay:10.37,2013-02-02 18:07:00,
2013-02-02 20:08:00,59.2,55.9,29.59,ENE,68,5.8,5.8,89,0.00,CLR,,0.00,WeatherDisplay:10.37,2013-02-02 18:08:00,
2013-02-02 20:09:00,59.2,55.9,29.59,SSE,158,6.2,6.2,89,0.00,CLR,,0.00,WeatherDisplay:10.37,2013-02-02 18:09:00,
2013-02-02 20:12:00,59.2,55.9,29.59,ENE,68,9.2,9.2,89,0.00,CLR,,0.00,WeatherDisplay:10.37,2013-02-02 18:12:00,
2013-02-02 20:13:00,59.0,55.8,29.59,ESE,112,4.6,4.6,89,0.00,CLR,,0.00,WeatherDisplay:10.37,2013-02-02 18:13:00,
2013-02-02 20:14:00,59.0,55.8,29.59,East,90,6.9,6.9,89,0.00,CLR,,0.00,WeatherDisplay:10.37,2013-02-02 18:14:00,
2013-02-02 20:17:00,59.0,55.8,29.56,SE,135,5.8,5.8,89,0.00,CLR,,0.00,WeatherDisplay:10.37,2013-02-02 18:17:00,
2013-02-02 20:18:00,59.0,55.8,29.56,SE,135,5.9,5.9,89,0.00,CLR,,0.00,WeatherDisplay:10.37,2013-02-02 18:18:00,
2013-02-02 20:20:00,58.8,55.6,29.56,SE,135,7.6,7.6,89,0.00,CLR,,0.00,WeatherDisplay:10.37,2013-02-02 18:20:00,
2013-02-02 20:23:00,58.8,55.9,29.56,SSW,202,11.5,11.5,90,0.00,CLR,,0.00,WeatherDisplay:10.37,2013-02-02 18:23:00,
2013-02-02 20:24:00,58.8,55.9,29.56,SSW,202,11.5,11.5,90,0.00,CLR,,0.00,WeatherDisplay:10.37,2013-02-02 18:24:00,
2013-02-02 20:25:00,58.8,55.9,29.56,SSE,158,9.2,9.2,90,0.00,CLR,,0.00,WeatherDisplay:10.37,2013-02-02 18:25:00,
2013-02-02 20:28:00,59.0,55.4,29.56,South,180,12.7,12.7,88,0.00,CLR,,0.00,WeatherDisplay:10.37,2013-02-02 18:28:00,
2013-02-02 20:29:00,59.0,55.4,29.56,South,180,12.7,12.7,88,0.00,CLR,,0.00,WeatherDisplay:10.37,2013-02-02 18:29:00,
2013-02-02 20:30:00,59.0,55.1,29.56,South,180,13.8,13.8,87,0.00,CLR,,0.00,WeatherDisplay:10.37,2013-02-02 18:30:00,
2013-02-02 20:33:00,59.2,55.0,29.56,SSW,202,13.2,13.2,86,0.00,CLR,,0.00,WeatherDisplay:10.37,2013-02-02 18:33:00,
2013-02-02 20:34:00,59.2,55.0,29.56,South,180,13.8,13.8,86,0.00,CLR,,0.00,WeatherDisplay:10.37,2013-02-02 18:34:00,
2013-02-02 20:35:00,59.2,55.0,29.56,SSW,202,8.1,8.1,86,0.00,CLR,,0.00,WeatherDisplay:10.37,2013-02-02 18:35:00,
2013-02-02 20:38:00,59.2,55.3,29.56,SSE,158,10.4,10.4,87,0.00,CLR,,0.00,WeatherDisplay:10.37,2013-02-02 18:38:00,
2013-02-02 20:39:00,59.0,55.1,29.56,SSE,158,9.2,9.2,87,0.00,CLR,,0.00,WeatherDisplay:10.37,2013-02-02 18:39:00,
2013-02-02 20:40:00,59.0,55.1,29.56,SSW,202,8.1,8.1,87,0.00,CLR,,0.00,WeatherDisplay:10.37,2013-02-02 18:40:00,
2013-02-02 20:43:00,59.0,55.4,29.56,SSW,202,6.9,6.9,88,0.00,CLR,,0.00,WeatherDisplay:10.37,2013-02-02 18:43:00,
2013-02-02 20:44:00,59.0,55.4,29.56,SSW,202,8.7,8.7,88,0.00,CLR,,0.00,WeatherDisplay:10.37,2013-02-02 18:44:00,
2013-02-02 20:45:00,59.0,55.8,29.56,SSE,158,9.2,9.2,89,0.00,CLR,,0.00,WeatherDisplay:10.37,2013-02-02 18:45:00,
2013-02-02 20:48:00,58.8,55.6,29.56,SSW,202,9.2,9.2,89,0.00,CLR,,0.00,WeatherDisplay:10.37,2013-02-02 18:48:00,
2013-02-02 20:49:00,58.8,55.6,29.56,SSW,202,6.9,6.9,89,0.00,CLR,,0.00,WeatherDisplay:10.37,2013-02-02 18:49:00,
2013-02-02 20:50:00,58.8,55.3,29.56,SSW,202,8.1,8.1,88,0.00,CLR,,0.00,WeatherDisplay:10.37,2013-02-02 18:50:00,
2013-02-02 20:53:00,58.8,55.3,29.56,South,180,8.1,8.1,88,0.00,CLR,,0.00,WeatherDisplay:10.37,2013-02-02 18:53:00,
2013-02-02 20:54:00,58.8,55.3,29.56,SSW,202,13.0,13.0,88,0.00,CLR,,0.00,WeatherDisplay:10.37,2013-02-02 18:54:00,
2013-02-02 20:56:00,59.0,55.4,29.56,SW,225,14.5,14.5,88,0.00,CLR,,0.00,WeatherDisplay:10.37,2013-02-02 18:56:00,
2013-02-02 20:58:00,58.8,55.3,29.56,SSW,202,6.9,6.9,88,0.00,CLR,,0.00,WeatherDisplay:10.37,2013-02-02 18:58:00,
2013-02-02 20:59:00,58.8,55.3,29.56,South,180,9.2,9.2,88,0.00,CLR,,0.00,WeatherDisplay:10.37,2013-02-02 18:59:00,
2013-02-02 21:00:00,58.8,55.3,29.56,SSW,202,9.2,9.2,88,0.00,CLR,,0.00,WeatherDisplay:10.37,2013-02-02 19:00:00,
2013-02-02 21:01:00,58.8,55.3,29.56,SSW,202,10.4,10.4,88,0.00,CLR,,0.00,WeatherDisplay:10.37,2013-02-02 19:01:00,
2013-02-02 21:03:00,58.8,55.6,29.56,South,180,6.9,6.9,89,0.00,CLR,,0.00,WeatherDisplay:10.37,2013-02-02 19:03:00,
2013-02-02 21:04:00,58.8,55.6,29.56,SSE,158,5.9,6.2,89,0.00,CLR,,0.00,WeatherDisplay:10.37,2013-02-02 19:04:00,
2013-02-02 21:05:00,58.8,55.6,29.56,SSE,158,5.9,6.2,89,0.00,CLR,,0.00,WeatherDisplay:10.37,2013-02-02 19:05:00,
2013-02-02 21:06:00,58.8,55.6,29.56,South,180,5.8,5.8,89,0.00,CLR,,0.00,WeatherDisplay:10.37,2013-02-02 19:06:00,
2013-02-02 21:09:00,58.8,55.9,29.56,SSE,158,10.4,10.4,90,0.00,CLR,,0.00,WeatherDisplay:10.37,2013-02-02 19:09:00,
2013-02-02 21:10:00,58.8,55.9,29.56,SSE,158,8.1,8.1,90,0.00,CLR,,0.00,WeatherDisplay:10.37,2013-02-02 19:10:00,
2013-02-02 21:11:00,58.8,55.9,29.56,South,180,6.9,6.9,90,0.00,CLR,,0.00,WeatherDisplay:10.37,2013-02-02 19:11:00,
2013-02-02 21:14:00,58.6,56.0,29.56,SSE,158,8.1,8.1,91,0.00,CLR,,0.00,WeatherDisplay:10.37,2013-02-02 19:14:00,
2013-02-02 21:15:00,58.6,56.0,29.56,SSE,158,8.1,8.1,91,0.00,CLR,,0.00,WeatherDisplay:10.37,2013-02-02 19:15:00,
2013-02-02 21:16:00,58.5,55.8,29.56,ESE,112,9.2,9.2,91,0.00,CLR,,0.00,WeatherDisplay:10.37,2013-02-02 19:16:00,
2013-02-02 21:19:00,58.5,55.8,29.56,SSE,158,5.8,5.8,91,0.00,CLR,,0.00,WeatherDisplay:10.37,2013-02-02 19:19:00,
2013-02-02 21:20:00,58.5,55.8,29.56,SSE,158,5.8,5.8,91,0.00,CLR,,0.00,WeatherDisplay:10.37,2013-02-02 19:20:00,
2013-02-02 21:21:00,58.3,55.7,29.56,SSW,202,5.8,5.8,91,0.00,CLR,,0.00,WeatherDisplay:10.37,2013-02-02 19:21:00,
2013-02-02 21:24:00,58.1,55.5,29.56,SSE,158,4.6,4.6,91,0.00,CLR,,0.00,WeatherDisplay:10.37,2013-02-02 19:24:00,
2013-02-02 21:25:00,58.1,55.5,29.56,SSE,160,3.0,11.0,91,0.00,CLR,,0.00,WeatherDisplay:10.37,2013-02-02 19:25:00,
2013-02-02 21:26:00,58.1,56.1,29.56,South,180,10.4,10.4,93,0.00,CLR,,0.00,WeatherDisplay:10.37,2013-02-02 19:26:00,
2013-02-02 21:29:00,58.3,56.3,29.56,SSE,158,12.7,12.7,93,0.00,CLR,,0.00,WeatherDisplay:10.37,2013-02-02 19:29:00,
2013-02-02 21:30:00,58.3,56.3,29.56,SSE,158,12.7,12.7,93,0.00,CLR,,0.00,WeatherDisplay:10.37,2013-02-02 19:30:00,
2013-02-02 21:31:00,58.3,56.3,29.56,SSW,202,6.9,6.9,93,0.00,CLR,,0.00,WeatherDisplay:10.37,2013-02-02 19:31:00,
2013-02-02 21:35:00,58.3,56.0,29.56,SSE,158,6.9,6.9,92,0.00,CLR,,0.00,WeatherDisplay:10.37,2013-02-02 19:35:00,
2013-02-02 21:36:00,58.5,56.1,29.56,SSW,202,6.9,6.9,92,0.00,CLR,,0.00,WeatherDisplay:10.37,2013-02-02 19:36:00,
2013-02-02 21:40:00,58.5,55.5,29.56,South,178,5.0,10.0,90,0.00,CLR,,0.00,WeatherDisplay:10.37,2013-02-02 19:40:00,
2013-02-02 21:41:00,58.5,55.5,29.56,SSW,202,6.9,6.9,90,0.00,CLR,,0.00,WeatherDisplay:10.37,2013-02-02 19:41:00,
2013-02-02 21:45:00,58.5,54.9,29.56,SSE,158,10.4,10.4,88,0.00,CLR,,0.00,WeatherDisplay:10.37,2013-02-02 19:45:00,
2013-02-02 21:46:00,58.5,54.9,29.56,SSW,202,8.1,8.1,88,0.00,CLR,,0.00,WeatherDisplay:10.37,2013-02-02 19:46:00,
2013-02-02 21:47:00,58.5,54.9,29.56,SSE,158,8.1,8.1,88,0.00,CLR,,0.00,WeatherDisplay:10.37,2013-02-02 19:47:00,
2013-02-02 21:50:00,58.6,55.1,29.56,SSE,158,9.2,9.2,88,0.00,CLR,,0.00,WeatherDisplay:10.37,2013-02-02 19:50:00,
2013-02-02 21:51:00,58.6,55.1,29.56,South,180,10.4,10.4,88,0.00,CLR,,0.00,WeatherDisplay:10.37,2013-02-02 19:51:00,
2013-02-02 21:52:00,58.6,54.8,29.56,South,180,9.0,9.0,87,0.00,CLR,,0.00,WeatherDisplay:10.37,2013-02-02 19:52:00,
2013-02-02 21:55:00,58.6,54.5,29.56,South,180,9.2,9.2,86,0.00,CLR,,0.00,WeatherDisplay:10.37,2013-02-02 19:55:00,
2013-02-02 21:56:00,58.6,54.5,29.56,South,180,9.2,9.2,86,0.00,CLR,,0.00,WeatherDisplay:10.37,2013-02-02 19:56:00,
2013-02-02 21:57:00,58.6,54.5,29.56,SSE,158,9.2,9.2,86,0.00,CLR,,0.00,WeatherDisplay:10.37,2013-02-02 19:57:00,
2013-02-02 22:00:00,58.6,54.8,29.56,SSE,158,9.8,9.8,87,0.00,CLR,,0.00,WeatherDisplay:10.37,2013-02-02 20:00:00,
2013-02-02 22:01:00,58.6,54.8,29.56,SSE,158,8.1,8.1,87,0.00,CLR,,0.00,WeatherDisplay:10.37,2013-02-02 20:01:00,
2013-02-02 22:02:00,58.6,55.1,29.59,SSE,158,10.4,10.4,88,0.00,CLR,,0.00,WeatherDisplay:10.37,2013-02-02 20:02:00,
2013-02-02 22:05:00,58.6,55.1,29.59,South,180,8.1,8.1,88,0.00,CLR,,0.00,WeatherDisplay:10.37,2013-02-02 20:05:00,
2013-02-02 22:06:00,58.6,55.1,29.59,SSE,158,6.4,6.4,88,0.00,CLR,,0.00,WeatherDisplay:10.37,2013-02-02 20:06:00,
2013-02-02 22:07:00,58.6,55.4,29.59,SSE,158,7.4,7.4,89,0.00,CLR,,0.00,WeatherDisplay:10.37,2013-02-02 20:07:00,
2013-02-02 22:11:00,58.5,55.2,29.59,SSE,158,8.1,8.1,89,0.00,CLR,,0.00,WeatherDisplay:10.37,2013-02-02 20:11:00,
2013-02-02 22:12:00,58.5,55.5,29.59,SSE,158,10.9,10.9,90,0.00,CLR,,0.00,WeatherDisplay:10.37,2013-02-02 20:12:00,
2013-02-02 22:16:00,58.5,56.1,29.59,SSW,202,16.1,16.1,92,0.00,CLR,,0.00,WeatherDisplay:10.37,2013-02-02 20:16:00,
2013-02-02 22:17:00,58.5,56.1,29.59,SSE,158,12.1,12.1,92,0.00,CLR,,0.00,WeatherDisplay:10.37,2013-02-02 20:17:00,
2013-02-02 22:21:00,58.5,56.1,29.59,SSE,158,8.1,8.1,92,0.00,CLR,,0.00,WeatherDisplay:10.37,2013-02-02 20:21:00,
2013-02-02 22:22:00,58.5,56.1,29.59,SSE,158,8.1,8.1,92,0.00,CLR,,0.00,WeatherDisplay:10.37,2013-02-02 20:22:00,
2013-02-02 22:23:00,58.5,56.1,29.59,SSE,158,10.9,10.9,92,0.00,CLR,,0.00,WeatherDisplay:10.37,2013-02-02 20:23:00,
2013-02-02 22:26:00,58.5,56.4,29.59,SSE,158,8.1,8.1,93,0.00,CLR,,0.00,WeatherDisplay:10.37,2013-02-02 20:26:00,
2013-02-02 22:27:00,58.5,56.4,29.59,SE,135,8.1,8.1,93,0.00,CLR,,0.00,WeatherDisplay:10.37,2013-02-02 20:27:00,
2013-02-02 22:28:00,58.5,56.4,29.59,SSW,202,15.0,15.0,93,0.00,CLR,,0.00,WeatherDisplay:10.37,2013-02-02 20:28:00,
2013-02-02 22:31:00,58.5,56.1,29.59,South,180,9.2,9.2,92,0.00,CLR,,0.00,WeatherDisplay:10.37,2013-02-02 20:31:00,
2013-02-02 22:32:00,58.5,56.1,29.59,SSE,158,8.1,8.1,92,0.00,CLR,,0.00,WeatherDisplay:10.37,2013-02-02 20:32:00,
2013-02-02 22:33:00,58.5,55.8,29.59,SE,135,12.8,12.8,91,0.00,CLR,,0.00,WeatherDisplay:10.37,2013-02-02 20:33:00,
2013-02-02 22:36:00,58.5,55.8,29.59,SSE,158,12.7,12.7,91,0.00,CLR,,0.00,WeatherDisplay:10.37,2013-02-02 20:36:00,
2013-02-02 22:37:00,58.6,55.7,29.59,SSE,158,11.5,11.5,90,0.00,CLR,,0.00,WeatherDisplay:10.37,2013-02-02 20:37:00,
2013-02-02 22:38:00,58.6,55.7,29.59,South,180,18.4,18.4,90,0.00,CLR,,0.00,WeatherDisplay:10.37,2013-02-02 20:38:00,
2013-02-02 22:41:00,58.6,55.4,29.59,SSW,202,10.0,10.0,89,0.00,CLR,,0.00,WeatherDisplay:10.37,2013-02-02 20:41:00,
2013-02-02 22:42:00,58.6,55.1,29.59,SSW,202,11.5,11.5,88,0.00,CLR,,0.00,WeatherDisplay:10.37,2013-02-02 20:42:00,
2013-02-02 22:43:00,58.6,55.1,29.59,SSW,202,13.8,13.8,88,0.00,CLR,,0.00,WeatherDisplay:10.37,2013-02-02 20:43:00,
2013-02-02 22:46:00,58.6,54.8,29.59,SSE,158,8.1,8.1,87,0.00,CLR,,0.00,WeatherDisplay:10.37,2013-02-02 20:46:00,
2013-02-02 22:47:00,58.6,54.8,29.59,SSE,158,10.4,10.4,87,0.00,CLR,,0.00,WeatherDisplay:10.37,2013-02-02 20:47:00,
2013-02-02 22:48:00,58.8,55.0,29.59,SSE,158,9.2,9.2,87,0.00,CLR,,0.00,WeatherDisplay:10.37,2013-02-02 20:48:00,
2013-02-02 22:51:00,58.6,55.1,29.59,South,180,12.7,12.7,88,0.00,CLR,,0.00,WeatherDisplay:10.37,2013-02-02 20:51:00,
2013-02-02 22:52:00,58.6,55.1,29.59,SSE,158,12.7,12.7,88,0.00,CLR,,0.00,WeatherDisplay:10.37,2013-02-02 20:52:00,
2013-02-02 22:53:00,58.6,55.1,29.59,SSE,158,9.2,9.2,88,0.00,CLR,,0.00,WeatherDisplay:10.37,2013-02-02 20:53:00,
2013-02-02 22:54:00,58.6,55.4,29.59,SSE,158,18.4,18.4,89,0.00,CLR,,0.00,WeatherDisplay:10.37,2013-02-02 20:54:00,
2013-02-02 22:57:00,58.6,56.0,29.59,SSE,158,8.1,8.1,91,0.00,CLR,,0.00,WeatherDisplay:10.37,2013-02-02 20:57:00,
2013-02-02 22:58:00,58.5,55.8,29.59,SSE,158,5.9,6.4,91,0.00,CLR,,0.00,WeatherDisplay:10.37,2013-02-02 20:58:00,
2013-02-02 22:59:00,58.6,56.3,29.59,SSW,202,11.5,11.5,92,0.00,CLR,,0.00,WeatherDisplay:10.37,2013-02-02 20:59:00,
2013-02-02 23:02:00,58.5,56.4,29.59,SSE,158,11.5,11.5,93,0.00,CLR,,0.00,WeatherDisplay:10.37,2013-02-02 21:02:00,
2013-02-02 23:03:00,58.6,56.9,29.59,SSE,158,11.5,11.5,94,0.00,CLR,,0.00,WeatherDisplay:10.37,2013-02-02 21:03:00,
2013-02-02 23:04:00,58.5,56.7,29.59,SSE,158,10.2,10.2,94,0.00,CLR,,0.00,WeatherDisplay:10.37,2013-02-02 21:04:00,
2013-02-02 23:07:00,58.6,57.5,29.59,SSE,158,15.0,15.0,96,0.00,CLR,,0.00,WeatherDisplay:10.37,2013-02-02 21:07:00,
2013-02-02 23:08:00,58.6,57.5,29.59,SSW,202,12.7,12.7,96,0.00,CLR,,0.00,WeatherDisplay:10.37,2013-02-02 21:08:00,
2013-02-02 23:09:00,58.5,57.3,29.59,SSW,202,10.4,10.4,96,0.00,CLR,,0.00,WeatherDisplay:10.37,2013-02-02 21:09:00,
2013-02-02 23:12:00,58.5,57.6,29.59,South,180,11.5,11.5,97,0.00,CLR,,0.00,WeatherDisplay:10.37,2013-02-02 21:12:00,
2013-02-02 23:13:00,58.5,57.6,29.59,ESE,112,9.2,9.2,97,0.00,CLR,,0.00,WeatherDisplay:10.37,2013-02-02 21:13:00,
2013-02-02 23:14:00,58.5,57.6,29.59,SE,135,5.8,5.9,97,0.00,CLR,,0.00,WeatherDisplay:10.37,2013-02-02 21:14:00,
2013-02-02 23:17:00,58.3,57.4,29.59,SSE,158,4.9,4.9,97,0.00,CLR,,0.00,WeatherDisplay:10.37,2013-02-02 21:17:00,
2013-02-02 23:19:00,58.5,57.9,29.59,SSW,202,11.5,11.5,98,0.00,CLR,,0.00,WeatherDisplay:10.37,2013-02-02 21:19:00,
2013-02-02 23:20:00,58.5,58.2,29.59,SSE,158,16.1,16.1,99,0.00,CLR,,0.00,WeatherDisplay:10.37,2013-02-02 21:20:00,
2013-02-02 23:22:00,58.5,58.2,29.59,WSW,248,11.5,11.5,99,0.00,CLR,,0.00,WeatherDisplay:10.37,2013-02-02 21:22:00,
2013-02-02 23:24:00,58.5,58.5,29.59,SSE,158,11.5,11.5,100,0.00,CLR,,0.00,WeatherDisplay:10.37,2013-02-02 21:24:00,
2013-02-02 23:25:00,58.5,58.5,29.59,SSE,158,9.8,9.8,100,0.00,CLR,,0.00,WeatherDisplay:10.37,2013-02-02 21:25:00,
2013-02-02 23:27:00,58.3,58.3,29.59,SSW,202,9.2,9.2,100,0.00,CLR,,0.00,WeatherDisplay:10.37,2013-02-02 21:27:00,
2013-02-02 23:29:00,58.3,58.3,29.59,SSW,202,6.9,6.9,100,0.00,CLR,,0.00,WeatherDisplay:10.37,2013-02-02 21:29:00,
2013-02-02 23:30:00,58.3,58.3,29.59,SSW,202,4.6,4.6,100,0.00,CLR,,0.00,WeatherDisplay:10.37,2013-02-02 21:30:00,
2013-02-02 23:32:00,58.3,58.3,29.59,SE,135,6.9,6.9,100,0.00,CLR,,0.00,WeatherDisplay:10.37,2013-02-02 21:32:00,
2013-02-02 23:34:00,58.1,58.1,29.59,SSE,158,8.1,8.1,100,0.00,CLR,,0.00,WeatherDisplay:10.37,2013-02-02 21:34:00,
2013-02-02 23:35:00,58.1,58.1,29.59,SSE,158,10.4,10.4,100,0.00,CLR,,0.00,WeatherDisplay:10.37,2013-02-02 21:35:00,
2013-02-02 23:37:00,58.1,58.1,29.59,SSE,158,5.8,5.8,100,0.00,CLR,,0.00,WeatherDisplay:10.37,2013-02-02 21:37:00,
2013-02-02 23:39:00,57.9,57.6,29.59,SSE,158,5.8,5.8,99,0.00,CLR,,0.00,WeatherDisplay:10.37,2013-02-02 21:39:00,
2013-02-02 23:41:00,57.9,57.6,29.59,SSE,158,7.6,7.6,99,0.00,CLR,,0.00,WeatherDisplay:10.37,2013-02-02 21:41:00,
2013-02-02 23:42:00,57.9,57.6,29.59,SSE,158,8.1,8.1,99,0.00,CLR,,0.00,WeatherDisplay:10.37,2013-02-02 21:42:00,
2013-02-02 23:44:00,57.9,57.9,29.59,SSE,158,5.8,5.8,100,0.00,CLR,,0.00,WeatherDisplay:10.37,2013-02-02 21:44:00,
2013-02-02 23:45:00,57.9,57.9,29.59,SSE,158,4.6,4.6,100,0.00,CLR,,0.00,WeatherDisplay:10.37,2013-02-02 21:45:00,
2013-02-02 23:46:00,57.7,57.5,29.59,SSE,158,4.6,4.6,99,0.00,CLR,,0.00,WeatherDisplay:10.37,2013-02-02 21:46:00,
2013-02-02 23:48:00,57.9,57.9,29.59,SSE,158,6.9,6.9,100,0.00,CLR,,0.00,WeatherDisplay:10.37,2013-02-02 21:48:00,
2013-02-02 23:49:00,57.7,57.7,29.59,SSE,158,10.0,10.0,100,0.00,CLR,,0.00,WeatherDisplay:10.37,2013-02-02 21:49:00,
2013-02-02 23:50:00,57.9,57.9,29.59,SSE,158,10.4,10.4,100,0.00,CLR,,0.00,WeatherDisplay:10.37,2013-02-02 21:50:00,
2013-02-02 23:51:00,57.9,57.9,29.59,SSE,158,10.4,10.4,100,0.00,CLR,,0.00,WeatherDisplay:10.37,2013-02-02 21:51:00,
2013-02-02 23:53:00,57.9,57.9,29.59,SSE,158,11.5,11.5,100,0.00,CLR,,0.00,WeatherDisplay:10.37,2013-02-02 21:53:00,
2013-02-02 23:54:00,57.9,57.9,29.59,SSE,158,17.3,17.3,100,0.00,CLR,,0.00,WeatherDisplay:10.37,2013-02-02 21:54:00,
2013-02-02 23:55:00,57.9,57.9,29.59,SSE,158,8.1,8.1,100,0.00,CLR,,0.00,WeatherDisplay:10.37,2013-02-02 21:55:00,
2013-02-02 23:56:00,57.9,57.9,29.59,SE,135,8.1,8.1,100,0.00,CLR,,0.00,WeatherDisplay:10.37,2013-02-02 21:56:00,
2013-02-02 23:58:00,57.9,57.9,29.59,SSE,158,15.2,15.2,100,0.00,CLR,,0.00,WeatherDisplay:10.37,2013-02-02 21:58:00,
2013-02-02 23:59:00,57.9,57.9,29.59,SE,135,12.7,12.7,100,0.00,CLR,,0.00,WeatherDisplay:10.37,2013-02-02 21:59:00,